﻿<?xml version="1.0" encoding="utf-8"?><gpx creator="Garmin Desktop App" version="1.1" xsi:schemaLocation="http://www.topografix.com/GPX/1/1 http://www.topografix.com/GPX/1/1/gpx.xsd http://www.garmin.com/xmlschemas/WaypointExtension/v1 http://www8.garmin.com/xmlschemas/WaypointExtensionv1.xsd http://www.garmin.com/xmlschemas/TrackPointExtension/v1 http://www.garmin.com/xmlschemas/TrackPointExtensionv1.xsd http://www.garmin.com/xmlschemas/GpxExtensions/v3 http://www8.garmin.com/xmlschemas/GpxExtensionsv3.xsd http://www.garmin.com/xmlschemas/ActivityExtension/v1 http://www8.garmin.com/xmlschemas/ActivityExtensionv1.xsd http://www.garmin.com/xmlschemas/AdventuresExtensions/v1 http://www8.garmin.com/xmlschemas/AdventuresExtensionv1.xsd http://www.garmin.com/xmlschemas/PressureExtension/v1 http://www.garmin.com/xmlschemas/PressureExtensionv1.xsd http://www.garmin.com/xmlschemas/TripExtensions/v1 http://www.garmin.com/xmlschemas/TripExtensionsv1.xsd http://www.garmin.com/xmlschemas/TripMetaDataExtensions/v1 http://www.garmin.com/xmlschemas/TripMetaDataExtensionsv1.xsd http://www.garmin.com/xmlschemas/ViaPointTransportationModeExtensions/v1 http://www.garmin.com/xmlschemas/ViaPointTransportationModeExtensionsv1.xsd http://www.garmin.com/xmlschemas/CreationTimeExtension/v1 http://www.garmin.com/xmlschemas/CreationTimeExtensionsv1.xsd http://www.garmin.com/xmlschemas/AccelerationExtension/v1 http://www.garmin.com/xmlschemas/AccelerationExtensionv1.xsd http://www.garmin.com/xmlschemas/PowerExtension/v1 http://www.garmin.com/xmlschemas/PowerExtensionv1.xsd http://www.garmin.com/xmlschemas/VideoExtension/v1 http://www.garmin.com/xmlschemas/VideoExtensionv1.xsd" xmlns="http://www.topografix.com/GPX/1/1" xmlns:xsi="http://www.w3.org/2001/XMLSchema-instance" xmlns:wptx1="http://www.garmin.com/xmlschemas/WaypointExtension/v1" xmlns:gpxtrx="http://www.garmin.com/xmlschemas/GpxExtensions/v3" xmlns:gpxtpx="http://www.garmin.com/xmlschemas/TrackPointExtension/v1" xmlns:gpxx="http://www.garmin.com/xmlschemas/GpxExtensions/v3" xmlns:trp="http://www.garmin.com/xmlschemas/TripExtensions/v1" xmlns:adv="http://www.garmin.com/xmlschemas/AdventuresExtensions/v1" xmlns:prs="http://www.garmin.com/xmlschemas/PressureExtension/v1" xmlns:tmd="http://www.garmin.com/xmlschemas/TripMetaDataExtensions/v1" xmlns:vptm="http://www.garmin.com/xmlschemas/ViaPointTransportationModeExtensions/v1" xmlns:ctx="http://www.garmin.com/xmlschemas/CreationTimeExtension/v1" xmlns:gpxacc="http://www.garmin.com/xmlschemas/AccelerationExtension/v1" xmlns:gpxpx="http://www.garmin.com/xmlschemas/PowerExtension/v1" xmlns:vidx1="http://www.garmin.com/xmlschemas/VideoExtension/v1">

  <metadata>
    <link href="http://www.garmin.com">
      <text>Garmin International</text>
    </link>
    <time>2025-11-02T06:49:02Z</time>
    <bounds maxlat="45.845426581799984" maxlon="9.699968257918954" minlat="45.832139840349555" minlon="9.689486352726817" />
  </metadata>

  <trk>
    <name>Ferrata-S-Croce2025-11-01</name>
    <extensions>
      <gpxx:TrackExtension>
        <gpxx:DisplayColor>Red</gpxx:DisplayColor>
      </gpxx:TrackExtension>
      <gpxtrkx:TrackStatsExtension xmlns:gpxtrkx="http://www.garmin.com/xmlschemas/TrackStatsExtension/v1">
        <gpxtrkx:Distance>10124</gpxtrkx:Distance>
        <gpxtrkx:TotalElapsedTime>23554</gpxtrkx:TotalElapsedTime>
        <gpxtrkx:MovingTime>15019</gpxtrkx:MovingTime>
        <gpxtrkx:StoppedTime>8353</gpxtrkx:StoppedTime>
        <gpxtrkx:MovingSpeed>0.674</gpxtrkx:MovingSpeed>
        <gpxtrkx:MaxSpeed>3.861</gpxtrkx:MaxSpeed>
        <gpxtrkx:MaxElevation>1060.472</gpxtrkx:MaxElevation>
        <gpxtrkx:MinElevation>738.225</gpxtrkx:MinElevation>
        <gpxtrkx:Ascent>508</gpxtrkx:Ascent>
        <gpxtrkx:Descent>518.431</gpxtrkx:Descent>
        <gpxtrkx:AvgAscentRate>0.048</gpxtrkx:AvgAscentRate>
        <gpxtrkx:MaxAscentRate>1.733</gpxtrkx:MaxAscentRate>
        <gpxtrkx:AvgDescentRate>0.053</gpxtrkx:AvgDescentRate>
        <gpxtrkx:MaxDescentRate>-0.327</gpxtrkx:MaxDescentRate>
      </gpxtrkx:TrackStatsExtension>
    </extensions>
    <trkseg>
      <trkpt lat="45.842016907408834" lon="9.689507475122809">
        <ele>738.22000000000003</ele>
        <time>2025-11-01T07:39:37Z</time>
      </trkpt>
      <trkpt lat="45.842018332332373" lon="9.689548714086413">
        <ele>753.60000000000002</ele>
        <time>2025-11-01T07:40:54Z</time>
      </trkpt>
      <trkpt lat="45.842011962085962" lon="9.689525999128819">
        <ele>753.83000000000004</ele>
        <time>2025-11-01T07:42:34Z</time>
      </trkpt>
      <trkpt lat="45.841995952650905" lon="9.689561622217298">
        <ele>753.53999999999996</ele>
        <time>2025-11-01T07:43:25Z</time>
      </trkpt>
      <trkpt lat="45.842005591839552" lon="9.68954217620194">
        <ele>753.20000000000005</ele>
        <time>2025-11-01T07:44:40Z</time>
      </trkpt>
      <trkpt lat="45.842032246291637" lon="9.689531279727817">
        <ele>752.82000000000005</ele>
        <time>2025-11-01T07:45:24Z</time>
      </trkpt>
      <trkpt lat="45.842000311240554" lon="9.689486352726817">
        <ele>754.16999999999996</ele>
        <time>2025-11-01T07:45:59Z</time>
      </trkpt>
      <trkpt lat="45.841960329562426" lon="9.689631862565875">
        <ele>754.98000000000002</ele>
        <time>2025-11-01T07:46:09Z</time>
      </trkpt>
      <trkpt lat="45.841938788071275" lon="9.689761530607939">
        <ele>756.60000000000002</ele>
        <time>2025-11-01T07:46:20Z</time>
      </trkpt>
      <trkpt lat="45.842006430029869" lon="9.689865382388234">
        <ele>757.67999999999995</ele>
        <time>2025-11-01T07:46:32Z</time>
      </trkpt>
      <trkpt lat="45.842077676206827" lon="9.689849456772208">
        <ele>757.98000000000002</ele>
        <time>2025-11-01T07:47:24Z</time>
      </trkpt>
      <trkpt lat="45.842157555744052" lon="9.689897317439318">
        <ele>758.88999999999999</ele>
        <time>2025-11-01T07:47:38Z</time>
      </trkpt>
      <trkpt lat="45.842102570459247" lon="9.690022123977542">
        <ele>761.36000000000001</ele>
        <time>2025-11-01T07:47:50Z</time>
      </trkpt>
      <trkpt lat="45.842119920998812" lon="9.690137375146151">
        <ele>762.69000000000005</ele>
        <time>2025-11-01T07:48:01Z</time>
      </trkpt>
      <trkpt lat="45.842199800536036" lon="9.690169394016266">
        <ele>763.82000000000005</ele>
        <time>2025-11-01T07:48:11Z</time>
      </trkpt>
      <trkpt lat="45.842279344797134" lon="9.690194120630622">
        <ele>765.65999999999997</ele>
        <time>2025-11-01T07:48:22Z</time>
      </trkpt>
      <trkpt lat="45.84236559458077" lon="9.690197892487049">
        <ele>767.39999999999998</ele>
        <time>2025-11-01T07:48:35Z</time>
      </trkpt>
      <trkpt lat="45.842325780540705" lon="9.690277772024274">
        <ele>769.11000000000001</ele>
        <time>2025-11-01T07:48:49Z</time>
      </trkpt>
      <trkpt lat="45.842408090829849" lon="9.690303839743137">
        <ele>770.49000000000001</ele>
        <time>2025-11-01T07:48:59Z</time>
      </trkpt>
      <trkpt lat="45.842484533786774" lon="9.690360082313418">
        <ele>772.74000000000001</ele>
        <time>2025-11-01T07:49:13Z</time>
      </trkpt>
      <trkpt lat="45.842567095533013" lon="9.690374499186873">
        <ele>774.17999999999995</ele>
        <time>2025-11-01T07:49:22Z</time>
      </trkpt>
      <trkpt lat="45.842631300911307" lon="9.690391849726439">
        <ele>775.29999999999995</ele>
        <time>2025-11-01T07:49:31Z</time>
      </trkpt>
      <trkpt lat="45.842703552916646" lon="9.690455468371511">
        <ele>777.38999999999999</ele>
        <time>2025-11-01T07:49:46Z</time>
      </trkpt>
      <trkpt lat="45.842798016965389" lon="9.690524786710739">
        <ele>779.76999999999998</ele>
        <time>2025-11-01T07:50:01Z</time>
      </trkpt>
      <trkpt lat="45.842904131859541" lon="9.69056979753077">
        <ele>782.10000000000002</ele>
        <time>2025-11-01T07:50:15Z</time>
      </trkpt>
      <trkpt lat="45.843008486554027" lon="9.690597541630268">
        <ele>784.22000000000003</ele>
        <time>2025-11-01T07:50:29Z</time>
      </trkpt>
      <trkpt lat="45.843093814328313" lon="9.690577173605561">
        <ele>785.97000000000003</ele>
        <time>2025-11-01T07:50:40Z</time>
      </trkpt>
      <trkpt lat="45.84312248043716" lon="9.690630063414574">
        <ele>786.97000000000003</ele>
        <time>2025-11-01T07:50:57Z</time>
      </trkpt>
      <trkpt lat="45.843076631426811" lon="9.690735675394535">
        <ele>788.63</ele>
        <time>2025-11-01T07:51:08Z</time>
      </trkpt>
      <trkpt lat="45.843024495989084" lon="9.69085805118084">
        <ele>790.63</ele>
        <time>2025-11-01T07:51:21Z</time>
      </trkpt>
      <trkpt lat="45.842956686392426" lon="9.690961232408881">
        <ele>792.29999999999995</ele>
        <time>2025-11-01T07:51:32Z</time>
      </trkpt>
      <trkpt lat="45.842976551502943" lon="9.691042369231582">
        <ele>794.55999999999995</ele>
        <time>2025-11-01T07:51:46Z</time>
      </trkpt>
      <trkpt lat="45.843027094379067" lon="9.691010601818562">
        <ele>796.11000000000001</ele>
        <time>2025-11-01T07:51:56Z</time>
      </trkpt>
      <trkpt lat="45.843004463240504" lon="9.691115543246269">
        <ele>797.60000000000002</ele>
        <time>2025-11-01T07:52:10Z</time>
      </trkpt>
      <trkpt lat="45.842977724969387" lon="9.691255101934075">
        <ele>800</ele>
        <time>2025-11-01T07:52:25Z</time>
      </trkpt>
      <trkpt lat="45.842911591753364" lon="9.691383764147759">
        <ele>802.33000000000004</ele>
        <time>2025-11-01T07:52:42Z</time>
      </trkpt>
      <trkpt lat="45.842978060245514" lon="9.691445287317038">
        <ele>804.98000000000002</ele>
        <time>2025-11-01T07:53:02Z</time>
      </trkpt>
      <trkpt lat="45.843066656962037" lon="9.691459871828556">
        <ele>805</ele>
        <time>2025-11-01T07:53:13Z</time>
      </trkpt>
      <trkpt lat="45.843139998614788" lon="9.691444197669625">
        <ele>804.25</ele>
        <time>2025-11-01T07:53:19Z</time>
      </trkpt>
      <trkpt lat="45.843204790726304" lon="9.691385524347425">
        <ele>804.14999999999998</ele>
        <time>2025-11-01T07:53:26Z</time>
      </trkpt>
      <trkpt lat="45.843255082145333" lon="9.691341686993837">
        <ele>805.16999999999996</ele>
        <time>2025-11-01T07:53:32Z</time>
      </trkpt>
      <trkpt lat="45.843336805701256" lon="9.691280080005527">
        <ele>806.32000000000005</ele>
        <time>2025-11-01T07:53:41Z</time>
      </trkpt>
      <trkpt lat="45.843376619741321" lon="9.691202212125063">
        <ele>807.53999999999996</ele>
        <time>2025-11-01T07:53:50Z</time>
      </trkpt>
      <trkpt lat="45.843443004414439" lon="9.691255018115044">
        <ele>808.76999999999998</ele>
        <time>2025-11-01T07:54:00Z</time>
      </trkpt>
      <trkpt lat="45.843446189537644" lon="9.691376136615872">
        <ele>810.28999999999996</ele>
        <time>2025-11-01T07:54:10Z</time>
      </trkpt>
      <trkpt lat="45.843445602804422" lon="9.691519215703011">
        <ele>811.63</ele>
        <time>2025-11-01T07:54:21Z</time>
      </trkpt>
      <trkpt lat="45.843454236164689" lon="9.691652990877628">
        <ele>812.84000000000003</ele>
        <time>2025-11-01T07:54:32Z</time>
      </trkpt>
      <trkpt lat="45.843469658866525" lon="9.691789532080293">
        <ele>814.32000000000005</ele>
        <time>2025-11-01T07:54:43Z</time>
      </trkpt>
      <trkpt lat="45.843480555340648" lon="9.691913416609168">
        <ele>816.27999999999997</ele>
        <time>2025-11-01T07:54:54Z</time>
      </trkpt>
      <trkpt lat="45.843464797362685" lon="9.692032188177109">
        <ele>818.09000000000003</ele>
        <time>2025-11-01T07:55:06Z</time>
      </trkpt>
      <trkpt lat="45.843453565612435" lon="9.692138135433197">
        <ele>819.50999999999999</ele>
        <time>2025-11-01T07:55:18Z</time>
      </trkpt>
      <trkpt lat="45.84349631331861" lon="9.692089939489961">
        <ele>820.65999999999997</ele>
        <time>2025-11-01T07:55:27Z</time>
      </trkpt>
      <trkpt lat="45.843544341623783" lon="9.692072169855237">
        <ele>821.38</ele>
        <time>2025-11-01T07:55:33Z</time>
      </trkpt>
      <trkpt lat="45.843612989410758" lon="9.692024057731032">
        <ele>822.63</ele>
        <time>2025-11-01T07:55:44Z</time>
      </trkpt>
      <trkpt lat="45.843675350770354" lon="9.691996481269598">
        <ele>823.78999999999996</ele>
        <time>2025-11-01T07:55:52Z</time>
      </trkpt>
      <trkpt lat="45.843753889203072" lon="9.691915176808834">
        <ele>825.51999999999998</ele>
        <time>2025-11-01T07:56:03Z</time>
      </trkpt>
      <trkpt lat="45.843826895579696" lon="9.691827334463596">
        <ele>826.99000000000001</ele>
        <time>2025-11-01T07:56:17Z</time>
      </trkpt>
      <trkpt lat="45.843895794823766" lon="9.691744856536388">
        <ele>828.54999999999995</ele>
        <time>2025-11-01T07:56:28Z</time>
      </trkpt>
      <trkpt lat="45.843963185325265" lon="9.691687021404505">
        <ele>829.89999999999998</ele>
        <time>2025-11-01T07:56:39Z</time>
      </trkpt>
      <trkpt lat="45.844029067084193" lon="9.691567495465279">
        <ele>831.75</ele>
        <time>2025-11-01T07:56:51Z</time>
      </trkpt>
      <trkpt lat="45.84409000352025" lon="9.691449226811528">
        <ele>834.04999999999995</ele>
        <time>2025-11-01T07:57:03Z</time>
      </trkpt>
      <trkpt lat="45.844146246090531" lon="9.691389882937074">
        <ele>835.10000000000002</ele>
        <time>2025-11-01T07:57:11Z</time>
      </trkpt>
      <trkpt lat="45.84422629326582" lon="9.691417375579476">
        <ele>837</ele>
        <time>2025-11-01T07:57:22Z</time>
      </trkpt>
      <trkpt lat="45.844300473108888" lon="9.691434977576137">
        <ele>837.92999999999995</ele>
        <time>2025-11-01T07:57:46Z</time>
      </trkpt>
      <trkpt lat="45.844382029026747" lon="9.691445957869291">
        <ele>836.65999999999997</ele>
        <time>2025-11-01T07:57:59Z</time>
      </trkpt>
      <trkpt lat="45.844467105343938" lon="9.691496919840574">
        <ele>835.88</ele>
        <time>2025-11-01T07:58:12Z</time>
      </trkpt>
      <trkpt lat="45.84457472898066" lon="9.691541008651257">
        <ele>836.73000000000002</ele>
        <time>2025-11-01T07:58:27Z</time>
      </trkpt>
      <trkpt lat="45.844691405072808" lon="9.691608315333724">
        <ele>838.58000000000004</ele>
        <time>2025-11-01T07:58:45Z</time>
      </trkpt>
      <trkpt lat="45.844783941283822" lon="9.691628683358431">
        <ele>840.48000000000002</ele>
        <time>2025-11-01T07:59:05Z</time>
      </trkpt>
      <trkpt lat="45.844888631254435" lon="9.691658774390817">
        <ele>843.50999999999999</ele>
        <time>2025-11-01T07:59:23Z</time>
      </trkpt>
      <trkpt lat="45.844969851896167" lon="9.691557269543409">
        <ele>846.30999999999995</ele>
        <time>2025-11-01T07:59:44Z</time>
      </trkpt>
      <trkpt lat="45.845050066709518" lon="9.69152114354074">
        <ele>847.74000000000001</ele>
        <time>2025-11-01T07:59:57Z</time>
      </trkpt>
      <trkpt lat="45.845157522708178" lon="9.6915353089571">
        <ele>850.69000000000005</ele>
        <time>2025-11-01T08:00:14Z</time>
      </trkpt>
      <trkpt lat="45.845263302326202" lon="9.691608399152756">
        <ele>853.54999999999995</ele>
        <time>2025-11-01T08:00:38Z</time>
      </trkpt>
      <trkpt lat="45.845331447198987" lon="9.691694313660264">
        <ele>857.77999999999997</ele>
        <time>2025-11-01T08:01:03Z</time>
      </trkpt>
      <trkpt lat="45.845402861014009" lon="9.691632287576795">
        <ele>861.61000000000001</ele>
        <time>2025-11-01T08:01:26Z</time>
      </trkpt>
      <trkpt lat="45.845426581799984" lon="9.691720800474286">
        <ele>863.35000000000002</ele>
        <time>2025-11-01T08:01:42Z</time>
      </trkpt>
      <trkpt lat="45.845359861850739" lon="9.69185876660049">
        <ele>863.75999999999999</ele>
        <time>2025-11-01T08:01:54Z</time>
      </trkpt>
      <trkpt lat="45.845301607623696" lon="9.691993212327361">
        <ele>864.92999999999995</ele>
        <time>2025-11-01T08:02:06Z</time>
      </trkpt>
      <trkpt lat="45.845255674794316" lon="9.692135620862246">
        <ele>866.98000000000002</ele>
        <time>2025-11-01T08:02:19Z</time>
      </trkpt>
      <trkpt lat="45.845187529921532" lon="9.692269060760737">
        <ele>868.27999999999997</ele>
        <time>2025-11-01T08:02:32Z</time>
      </trkpt>
      <trkpt lat="45.845102285966277" lon="9.692307533696294">
        <ele>870.45000000000005</ele>
        <time>2025-11-01T08:02:49Z</time>
      </trkpt>
      <trkpt lat="45.845010001212358" lon="9.692443069070578">
        <ele>872.74000000000001</ele>
        <time>2025-11-01T08:03:06Z</time>
      </trkpt>
      <trkpt lat="45.844888966530561" lon="9.692579945549369">
        <ele>873.96000000000004</ele>
        <time>2025-11-01T08:03:18Z</time>
      </trkpt>
      <trkpt lat="45.844799531623721" lon="9.692657729610801">
        <ele>874.09000000000003</ele>
        <time>2025-11-01T08:03:29Z</time>
      </trkpt>
      <trkpt lat="45.844712443649769" lon="9.692736016586423">
        <ele>874.48000000000002</ele>
        <time>2025-11-01T08:03:40Z</time>
      </trkpt>
      <trkpt lat="45.844635581597686" lon="9.692814974114299">
        <ele>874.97000000000003</ele>
        <time>2025-11-01T08:03:51Z</time>
      </trkpt>
      <trkpt lat="45.844548493623734" lon="9.692900972440839">
        <ele>875.40999999999997</ele>
        <time>2025-11-01T08:04:03Z</time>
      </trkpt>
      <trkpt lat="45.844449587166309" lon="9.69295185059309">
        <ele>875.34000000000003</ele>
        <time>2025-11-01T08:04:14Z</time>
      </trkpt>
      <trkpt lat="45.844344478100538" lon="9.692945145070553">
        <ele>875.65999999999997</ele>
        <time>2025-11-01T08:04:24Z</time>
      </trkpt>
      <trkpt lat="45.84423509426415" lon="9.692928045988083">
        <ele>875.41999999999996</ele>
        <time>2025-11-01T08:04:33Z</time>
      </trkpt>
      <trkpt lat="45.844119843095541" lon="9.693003818392754">
        <ele>874.87</ele>
        <time>2025-11-01T08:04:42Z</time>
      </trkpt>
      <trkpt lat="45.844004927203059" lon="9.693096941336989">
        <ele>874.50999999999999</ele>
        <time>2025-11-01T08:04:52Z</time>
      </trkpt>
      <trkpt lat="45.843892358243465" lon="9.693183107301593">
        <ele>874.75</ele>
        <time>2025-11-01T08:05:05Z</time>
      </trkpt>
      <trkpt lat="45.8437904343009" lon="9.693192830309272">
        <ele>873.54999999999995</ele>
        <time>2025-11-01T08:05:18Z</time>
      </trkpt>
      <trkpt lat="45.843652971088886" lon="9.693210264667869">
        <ele>872.63999999999999</ele>
        <time>2025-11-01T08:05:29Z</time>
      </trkpt>
      <trkpt lat="45.843518693000078" lon="9.693249743431807">
        <ele>871.70000000000005</ele>
        <time>2025-11-01T08:05:38Z</time>
      </trkpt>
      <trkpt lat="45.843369998037815" lon="9.693334484472871">
        <ele>870.36000000000001</ele>
        <time>2025-11-01T08:05:51Z</time>
      </trkpt>
      <trkpt lat="45.843245023861527" lon="9.69339600764215">
        <ele>870.25999999999999</ele>
        <time>2025-11-01T08:06:08Z</time>
      </trkpt>
      <trkpt lat="45.843146536499262" lon="9.69356213696301">
        <ele>873.04999999999995</ele>
        <time>2025-11-01T08:06:23Z</time>
      </trkpt>
      <trkpt lat="45.843037571758032" lon="9.69354160130024">
        <ele>872.23000000000002</ele>
        <time>2025-11-01T08:06:32Z</time>
      </trkpt>
      <trkpt lat="45.842936905100942" lon="9.693519808351994">
        <ele>872.14999999999998</ele>
        <time>2025-11-01T08:06:41Z</time>
      </trkpt>
      <trkpt lat="45.842822659760714" lon="9.69357923604548">
        <ele>871.92999999999995</ele>
        <time>2025-11-01T08:06:52Z</time>
      </trkpt>
      <trkpt lat="45.842707324773073" lon="9.693715609610081">
        <ele>871.40999999999997</ele>
        <time>2025-11-01T08:07:08Z</time>
      </trkpt>
      <trkpt lat="45.842578578740358" lon="9.693809906020761">
        <ele>870.50999999999999</ele>
        <time>2025-11-01T08:07:23Z</time>
      </trkpt>
      <trkpt lat="45.84244966506958" lon="9.693896239623427">
        <ele>871.5</ele>
        <time>2025-11-01T08:07:35Z</time>
      </trkpt>
      <trkpt lat="45.842326199635863" lon="9.693972682580352">
        <ele>872.55999999999995</ele>
        <time>2025-11-01T08:07:50Z</time>
      </trkpt>
      <trkpt lat="45.84222000092268" lon="9.693967401981354">
        <ele>872.52999999999997</ele>
        <time>2025-11-01T08:07:59Z</time>
      </trkpt>
      <trkpt lat="45.842097960412502" lon="9.694045605137944">
        <ele>873.45000000000005</ele>
        <time>2025-11-01T08:08:13Z</time>
      </trkpt>
      <trkpt lat="45.841993605718017" lon="9.694054238498211">
        <ele>872.82000000000005</ele>
        <time>2025-11-01T08:08:22Z</time>
      </trkpt>
      <trkpt lat="45.841889083385468" lon="9.694043761119247">
        <ele>871.38</ele>
        <time>2025-11-01T08:08:31Z</time>
      </trkpt>
      <trkpt lat="45.841784561052918" lon="9.694046024233103">
        <ele>871.05999999999995</ele>
        <time>2025-11-01T08:08:41Z</time>
      </trkpt>
      <trkpt lat="45.841673165559769" lon="9.694093381986022">
        <ele>872.74000000000001</ele>
        <time>2025-11-01T08:08:55Z</time>
      </trkpt>
      <trkpt lat="45.841562105342746" lon="9.694138895720244">
        <ele>872.28999999999996</ele>
        <time>2025-11-01T08:09:09Z</time>
      </trkpt>
      <trkpt lat="45.841501085087657" lon="9.694278370589018">
        <ele>872.00999999999999</ele>
        <time>2025-11-01T08:09:17Z</time>
      </trkpt>
      <trkpt lat="45.841486165300012" lon="9.694431340321899">
        <ele>872.24000000000001</ele>
        <time>2025-11-01T08:09:29Z</time>
      </trkpt>
      <trkpt lat="45.841504521667957" lon="9.69457408413291">
        <ele>873.83000000000004</ele>
        <time>2025-11-01T08:09:42Z</time>
      </trkpt>
      <trkpt lat="45.84150561131537" lon="9.694758569821715">
        <ele>876.19000000000005</ele>
        <time>2025-11-01T08:10:01Z</time>
      </trkpt>
      <trkpt lat="45.841519022360444" lon="9.694916568696499">
        <ele>877.47000000000003</ele>
        <time>2025-11-01T08:10:54Z</time>
      </trkpt>
      <trkpt lat="45.841455571353436" lon="9.694993263110519">
        <ele>879.13999999999999</ele>
        <time>2025-11-01T08:11:13Z</time>
      </trkpt>
      <trkpt lat="45.841409973800182" lon="9.694880275055766">
        <ele>880.57000000000005</ele>
        <time>2025-11-01T08:12:26Z</time>
      </trkpt>
      <trkpt lat="45.841335626319051" lon="9.694838700816035">
        <ele>882.05999999999995</ele>
        <time>2025-11-01T08:12:37Z</time>
      </trkpt>
      <trkpt lat="45.841258596628904" lon="9.69495914876461">
        <ele>881.13</ele>
        <time>2025-11-01T08:12:57Z</time>
      </trkpt>
      <trkpt lat="45.841209227219224" lon="9.695070711895824">
        <ele>879.15999999999997</ele>
        <time>2025-11-01T08:13:08Z</time>
      </trkpt>
      <trkpt lat="45.841117696836591" lon="9.695088565349579">
        <ele>878.14999999999998</ele>
        <time>2025-11-01T08:13:20Z</time>
      </trkpt>
      <trkpt lat="45.841008899733424" lon="9.695175904780626">
        <ele>878.07000000000005</ele>
        <time>2025-11-01T08:13:32Z</time>
      </trkpt>
      <trkpt lat="45.84091485477984" lon="9.695334658026695">
        <ele>878.30999999999995</ele>
        <time>2025-11-01T08:13:50Z</time>
      </trkpt>
      <trkpt lat="45.840789880603552" lon="9.695465918630362">
        <ele>879.75999999999999</ele>
        <time>2025-11-01T08:14:04Z</time>
      </trkpt>
      <trkpt lat="45.840663900598884" lon="9.695540852844715">
        <ele>880.75</ele>
        <time>2025-11-01T08:14:17Z</time>
      </trkpt>
      <trkpt lat="45.840617045760155" lon="9.695822736248374">
        <ele>880.95000000000005</ele>
        <time>2025-11-01T08:14:33Z</time>
      </trkpt>
      <trkpt lat="45.840613106265664" lon="9.696053070947528">
        <ele>881.02999999999997</ele>
        <time>2025-11-01T08:14:47Z</time>
      </trkpt>
      <trkpt lat="45.840598689392209" lon="9.696259601041675">
        <ele>881.35000000000002</ele>
        <time>2025-11-01T08:14:59Z</time>
      </trkpt>
      <trkpt lat="45.840627020224929" lon="9.696451127529144">
        <ele>881.74000000000001</ele>
        <time>2025-11-01T08:15:10Z</time>
      </trkpt>
      <trkpt lat="45.840542614459991" lon="9.696575598791242">
        <ele>883.45000000000005</ele>
        <time>2025-11-01T08:15:26Z</time>
      </trkpt>
      <trkpt lat="45.840462651103735" lon="9.696697890758514">
        <ele>884.85000000000002</ele>
        <time>2025-11-01T08:15:40Z</time>
      </trkpt>
      <trkpt lat="45.840377490967512" lon="9.696697806939483">
        <ele>887.61000000000001</ele>
        <time>2025-11-01T08:16:01Z</time>
      </trkpt>
      <trkpt lat="45.840272298082709" lon="9.696677858009934">
        <ele>887.13999999999999</ele>
        <time>2025-11-01T08:16:17Z</time>
      </trkpt>
      <trkpt lat="45.8402054104954" lon="9.696777435019612">
        <ele>885.09000000000003</ele>
        <time>2025-11-01T08:16:30Z</time>
      </trkpt>
      <trkpt lat="45.840092254802585" lon="9.696810459718108">
        <ele>885.30999999999995</ele>
        <time>2025-11-01T08:16:43Z</time>
      </trkpt>
      <trkpt lat="45.839973399415612" lon="9.696916742250323">
        <ele>886.65999999999997</ele>
        <time>2025-11-01T08:16:58Z</time>
      </trkpt>
      <trkpt lat="45.839897710829973" lon="9.697031071409583">
        <ele>889.45000000000005</ele>
        <time>2025-11-01T08:17:21Z</time>
      </trkpt>
      <trkpt lat="45.839812969788909" lon="9.697075914591551">
        <ele>886.02999999999997</ele>
        <time>2025-11-01T08:17:42Z</time>
      </trkpt>
      <trkpt lat="45.839790171012282" lon="9.697213713079691">
        <ele>884.79999999999995</ele>
        <time>2025-11-01T08:17:59Z</time>
      </trkpt>
      <trkpt lat="45.839703753590584" lon="9.697242295369506">
        <ele>881.63</ele>
        <time>2025-11-01T08:18:22Z</time>
      </trkpt>
      <trkpt lat="45.839562015607953" lon="9.697229973971844">
        <ele>878.79999999999995</ele>
        <time>2025-11-01T08:18:37Z</time>
      </trkpt>
      <trkpt lat="45.839427653700113" lon="9.697385206818581">
        <ele>877.19000000000005</ele>
        <time>2025-11-01T08:18:54Z</time>
      </trkpt>
      <trkpt lat="45.839281473308802" lon="9.697433821856976">
        <ele>877.77999999999997</ele>
        <time>2025-11-01T08:19:10Z</time>
      </trkpt>
      <trkpt lat="45.83912456408143" lon="9.697429211810231">
        <ele>878.82000000000005</ele>
        <time>2025-11-01T08:19:23Z</time>
      </trkpt>
      <trkpt lat="45.839003445580602" lon="9.697393253445625">
        <ele>879.28999999999996</ele>
        <time>2025-11-01T08:19:33Z</time>
      </trkpt>
      <trkpt lat="45.838925996795297" lon="9.697302561253309">
        <ele>879.33000000000004</ele>
        <time>2025-11-01T08:19:42Z</time>
      </trkpt>
      <trkpt lat="45.838820552453399" lon="9.697307171300054">
        <ele>878.88999999999999</ele>
        <time>2025-11-01T08:19:54Z</time>
      </trkpt>
      <trkpt lat="45.838722316548228" lon="9.697341788560152">
        <ele>878.11000000000001</ele>
        <time>2025-11-01T08:20:05Z</time>
      </trkpt>
      <trkpt lat="45.838624499738216" lon="9.697307171300054">
        <ele>878.73000000000002</ele>
        <time>2025-11-01T08:20:17Z</time>
      </trkpt>
      <trkpt lat="45.838506314903498" lon="9.697269704192877">
        <ele>878.63</ele>
        <time>2025-11-01T08:20:36Z</time>
      </trkpt>
      <trkpt lat="45.838429285213351" lon="9.697132660076022">
        <ele>879.63999999999999</ele>
        <time>2025-11-01T08:20:52Z</time>
      </trkpt>
      <trkpt lat="45.838339682668447" lon="9.697013637050986">
        <ele>879.37</ele>
        <time>2025-11-01T08:21:03Z</time>
      </trkpt>
      <trkpt lat="45.838259048759937" lon="9.696896625682712">
        <ele>879.85000000000002</ele>
        <time>2025-11-01T08:21:16Z</time>
      </trkpt>
      <trkpt lat="45.838173218071461" lon="9.696775171905756">
        <ele>879.88</ele>
        <time>2025-11-01T08:21:28Z</time>
      </trkpt>
      <trkpt lat="45.838081520050764" lon="9.696848848834634">
        <ele>878.30999999999995</ele>
        <time>2025-11-01T08:21:43Z</time>
      </trkpt>
      <trkpt lat="45.837996024638414" lon="9.69692881219089">
        <ele>874.91999999999996</ele>
        <time>2025-11-01T08:21:57Z</time>
      </trkpt>
      <trkpt lat="45.83788001909852" lon="9.696992095559835">
        <ele>873.24000000000001</ele>
        <time>2025-11-01T08:22:11Z</time>
      </trkpt>
      <trkpt lat="45.837846407666802" lon="9.697152692824602">
        <ele>873.44000000000005</ele>
        <time>2025-11-01T08:22:22Z</time>
      </trkpt>
      <trkpt lat="45.837841043248773" lon="9.697329718619585">
        <ele>872.58000000000004</ele>
        <time>2025-11-01T08:22:38Z</time>
      </trkpt>
      <trkpt lat="45.837861830368638" lon="9.697503643110395">
        <ele>869.97000000000003</ele>
        <time>2025-11-01T08:22:57Z</time>
      </trkpt>
      <trkpt lat="45.837800139561296" lon="9.697575643658638">
        <ele>870.13999999999999</ele>
        <time>2025-11-01T08:23:12Z</time>
      </trkpt>
      <trkpt lat="45.837698886170983" lon="9.697527615353465">
        <ele>871.38</ele>
        <time>2025-11-01T08:23:23Z</time>
      </trkpt>
      <trkpt lat="45.837576426565647" lon="9.697500877082348">
        <ele>872.70000000000005</ele>
        <time>2025-11-01T08:23:34Z</time>
      </trkpt>
      <trkpt lat="45.837469305843115" lon="9.697503224015236">
        <ele>875.17999999999995</ele>
        <time>2025-11-01T08:23:52Z</time>
      </trkpt>
      <trkpt lat="45.837379619479179" lon="9.697590982541442">
        <ele>877.74000000000001</ele>
        <time>2025-11-01T08:24:06Z</time>
      </trkpt>
      <trkpt lat="45.837326645851135" lon="9.697628701105714">
        <ele>879.04999999999995</ele>
        <time>2025-11-01T08:24:16Z</time>
      </trkpt>
      <trkpt lat="45.837281551212072" lon="9.697712184861302">
        <ele>881.40999999999997</ele>
        <time>2025-11-01T08:24:31Z</time>
      </trkpt>
      <trkpt lat="45.837227907031775" lon="9.697851240634918">
        <ele>883.44000000000005</ele>
        <time>2025-11-01T08:24:45Z</time>
      </trkpt>
      <trkpt lat="45.83714609965682" lon="9.697983423247933">
        <ele>883.64999999999998</ele>
        <time>2025-11-01T08:24:57Z</time>
      </trkpt>
      <trkpt lat="45.837064292281866" lon="9.698029104620218">
        <ele>884.85000000000002</ele>
        <time>2025-11-01T08:25:11Z</time>
      </trkpt>
      <trkpt lat="45.836988687515259" lon="9.698100937530398">
        <ele>883.37</ele>
        <time>2025-11-01T08:25:29Z</time>
      </trkpt>
      <trkpt lat="45.836883829906583" lon="9.698018040508032">
        <ele>885.05999999999995</ele>
        <time>2025-11-01T08:25:47Z</time>
      </trkpt>
      <trkpt lat="45.836807303130627" lon="9.697929108515382">
        <ele>887.11000000000001</ele>
        <time>2025-11-01T08:26:01Z</time>
      </trkpt>
      <trkpt lat="45.836763633415103" lon="9.697811426594853">
        <ele>887.5</ele>
        <time>2025-11-01T08:26:11Z</time>
      </trkpt>
      <trkpt lat="45.836700098589063" lon="9.697760380804539">
        <ele>887.88</ele>
        <time>2025-11-01T08:26:19Z</time>
      </trkpt>
      <trkpt lat="45.83659884519875" lon="9.697712855413556">
        <ele>889.71000000000004</ele>
        <time>2025-11-01T08:26:33Z</time>
      </trkpt>
      <trkpt lat="45.836508153006434" lon="9.697656193748117">
        <ele>889.82000000000005</ele>
        <time>2025-11-01T08:26:43Z</time>
      </trkpt>
      <trkpt lat="45.836406648159027" lon="9.697635741904378">
        <ele>889.63999999999999</ele>
        <time>2025-11-01T08:26:52Z</time>
      </trkpt>
      <trkpt lat="45.836282847449183" lon="9.697640938684344">
        <ele>890.42999999999995</ele>
        <time>2025-11-01T08:27:05Z</time>
      </trkpt>
      <trkpt lat="45.836163656786084" lon="9.697624007239938">
        <ele>888.72000000000003</ele>
        <time>2025-11-01T08:27:18Z</time>
      </trkpt>
      <trkpt lat="45.836024349555373" lon="9.697593078017235">
        <ele>886.88999999999999</ele>
        <time>2025-11-01T08:27:31Z</time>
      </trkpt>
      <trkpt lat="45.835926784202456" lon="9.697522586211562">
        <ele>888.19000000000005</ele>
        <time>2025-11-01T08:27:46Z</time>
      </trkpt>
      <trkpt lat="45.835909014567733" lon="9.697391074150801">
        <ele>890.87</ele>
        <time>2025-11-01T08:28:07Z</time>
      </trkpt>
      <trkpt lat="45.835967184975743" lon="9.69724397175014">
        <ele>893.95000000000005</ele>
        <time>2025-11-01T08:28:25Z</time>
      </trkpt>
      <trkpt lat="45.836046226322651" lon="9.697128972038627">
        <ele>896.60000000000002</ele>
        <time>2025-11-01T08:28:43Z</time>
      </trkpt>
      <trkpt lat="45.836063995957375" lon="9.696955969557166">
        <ele>897.57000000000005</ele>
        <time>2025-11-01T08:28:57Z</time>
      </trkpt>
      <trkpt lat="45.836062738671899" lon="9.696851447224617">
        <ele>897.13999999999999</ele>
        <time>2025-11-01T08:29:09Z</time>
      </trkpt>
      <trkpt lat="45.835988307371736" lon="9.696728568524122">
        <ele>897.28999999999996</ele>
        <time>2025-11-01T08:29:22Z</time>
      </trkpt>
      <trkpt lat="45.835950840264559" lon="9.696576688438654">
        <ele>896.96000000000004</ele>
        <time>2025-11-01T08:29:34Z</time>
      </trkpt>
      <trkpt lat="45.835936423391104" lon="9.696408547461033">
        <ele>897.14999999999998</ele>
        <time>2025-11-01T08:29:44Z</time>
      </trkpt>
      <trkpt lat="45.83585855551064" lon="9.696281393989921">
        <ele>896.92999999999995</ele>
        <time>2025-11-01T08:29:59Z</time>
      </trkpt>
      <trkpt lat="45.835810527205467" lon="9.696130184456706">
        <ele>897.27999999999997</ele>
        <time>2025-11-01T08:30:11Z</time>
      </trkpt>
      <trkpt lat="45.835860902443528" lon="9.696002947166562">
        <ele>897.01999999999998</ele>
        <time>2025-11-01T08:30:21Z</time>
      </trkpt>
      <trkpt lat="45.835845982655883" lon="9.695821227505803">
        <ele>897.52999999999997</ele>
        <time>2025-11-01T08:30:32Z</time>
      </trkpt>
      <trkpt lat="45.835839444771409" lon="9.695664653554559">
        <ele>898.36000000000001</ele>
        <time>2025-11-01T08:30:44Z</time>
      </trkpt>
      <trkpt lat="45.835774904116988" lon="9.695552252233028">
        <ele>897.94000000000005</ele>
        <time>2025-11-01T08:30:55Z</time>
      </trkpt>
      <trkpt lat="45.835708016529679" lon="9.695433145388961">
        <ele>897.61000000000001</ele>
        <time>2025-11-01T08:31:05Z</time>
      </trkpt>
      <trkpt lat="45.835628723725677" lon="9.695313284173608">
        <ele>898.38</ele>
        <time>2025-11-01T08:31:18Z</time>
      </trkpt>
      <trkpt lat="45.835596704855561" lon="9.695161152631044">
        <ele>899.58000000000004</ele>
        <time>2025-11-01T08:31:32Z</time>
      </trkpt>
      <trkpt lat="45.835568625479937" lon="9.695007931441069">
        <ele>899.78999999999996</ele>
        <time>2025-11-01T08:31:46Z</time>
      </trkpt>
      <trkpt lat="45.83555462770164" lon="9.694826630875468">
        <ele>901.94000000000005</ele>
        <time>2025-11-01T08:32:03Z</time>
      </trkpt>
      <trkpt lat="45.835570469498634" lon="9.69466838054359">
        <ele>902.76999999999998</ele>
        <time>2025-11-01T08:32:17Z</time>
      </trkpt>
      <trkpt lat="45.83559955470264" lon="9.694523960351944">
        <ele>902.32000000000005</ele>
        <time>2025-11-01T08:32:32Z</time>
      </trkpt>
      <trkpt lat="45.835628975182772" lon="9.694360680878162">
        <ele>903.44000000000005</ele>
        <time>2025-11-01T08:32:48Z</time>
      </trkpt>
      <trkpt lat="45.835591424256563" lon="9.694160772487521">
        <ele>903.97000000000003</ele>
        <time>2025-11-01T08:33:05Z</time>
      </trkpt>
      <trkpt lat="45.83553358912468" lon="9.694031355902553">
        <ele>904.29999999999995</ele>
        <time>2025-11-01T08:33:18Z</time>
      </trkpt>
      <trkpt lat="45.835585305467248" lon="9.693889953196049">
        <ele>902.38999999999999</ele>
        <time>2025-11-01T08:33:30Z</time>
      </trkpt>
      <trkpt lat="45.835613720118999" lon="9.693726673722267">
        <ele>903.38</ele>
        <time>2025-11-01T08:33:44Z</time>
      </trkpt>
      <trkpt lat="45.835683960467577" lon="9.693222837522626">
        <ele>898.02999999999997</ele>
        <time>2025-11-01T08:36:28Z</time>
      </trkpt>
      <trkpt lat="45.835554795339704" lon="9.693213952705264">
        <ele>916.09000000000003</ele>
        <time>2025-11-01T08:42:10Z</time>
      </trkpt>
      <trkpt lat="45.835540713742375" lon="9.693223088979721">
        <ele>915.84000000000003</ele>
        <time>2025-11-01T08:42:45Z</time>
      </trkpt>
      <trkpt lat="45.835558483377099" lon="9.693223088979721">
        <ele>915.88</ele>
        <time>2025-11-01T08:43:39Z</time>
      </trkpt>
      <trkpt lat="45.835589161142707" lon="9.693229123950005">
        <ele>915.44000000000005</ele>
        <time>2025-11-01T08:44:39Z</time>
      </trkpt>
      <trkpt lat="45.835628556087613" lon="9.693237002938986">
        <ele>915.03999999999996</ele>
        <time>2025-11-01T08:45:25Z</time>
      </trkpt>
      <trkpt lat="45.835652947425842" lon="9.693227950483561">
        <ele>914.78999999999996</ele>
        <time>2025-11-01T08:45:58Z</time>
      </trkpt>
      <trkpt lat="45.835578935220838" lon="9.693165002390742">
        <ele>914.64999999999998</ele>
        <time>2025-11-01T08:46:32Z</time>
      </trkpt>
      <trkpt lat="45.83557759411633" lon="9.693242786452174">
        <ele>915.02999999999997</ele>
        <time>2025-11-01T08:47:23Z</time>
      </trkpt>
      <trkpt lat="45.835609193891287" lon="9.693217556923628">
        <ele>914.03999999999996</ele>
        <time>2025-11-01T08:47:49Z</time>
      </trkpt>
      <trkpt lat="45.835619419813156" lon="9.693233566358686">
        <ele>914.69000000000005</ele>
        <time>2025-11-01T08:48:24Z</time>
      </trkpt>
      <trkpt lat="45.835608439520001" lon="9.693227782845497">
        <ele>914.44000000000005</ele>
        <time>2025-11-01T08:49:57Z</time>
      </trkpt>
      <trkpt lat="45.83561665378511" lon="9.693219233304262">
        <ele>914.45000000000005</ele>
        <time>2025-11-01T08:50:26Z</time>
      </trkpt>
      <trkpt lat="45.835589831694961" lon="9.693157877773047">
        <ele>914.25999999999999</ele>
        <time>2025-11-01T08:52:17Z</time>
      </trkpt>
      <trkpt lat="45.835622353479266" lon="9.693044805899262">
        <ele>915.51999999999998</ele>
        <time>2025-11-01T08:53:05Z</time>
      </trkpt>
      <trkpt lat="45.835649091750383" lon="9.692901056259871">
        <ele>918.47000000000003</ele>
        <time>2025-11-01T08:53:22Z</time>
      </trkpt>
      <trkpt lat="45.835653366521001" lon="9.692756636068225">
        <ele>919.63999999999999</ele>
        <time>2025-11-01T08:53:34Z</time>
      </trkpt>
      <trkpt lat="45.835688235238194" lon="9.692623028531671">
        <ele>921.01999999999998</ele>
        <time>2025-11-01T08:53:48Z</time>
      </trkpt>
      <trkpt lat="45.835736347362399" lon="9.692492270842195">
        <ele>923.62</ele>
        <time>2025-11-01T08:54:06Z</time>
      </trkpt>
      <trkpt lat="45.835791081190109" lon="9.692368721589446">
        <ele>925.55999999999995</ele>
        <time>2025-11-01T08:54:24Z</time>
      </trkpt>
      <trkpt lat="45.835864590480924" lon="9.692298648878932">
        <ele>924.52999999999997</ele>
        <time>2025-11-01T08:54:39Z</time>
      </trkpt>
      <trkpt lat="45.835913959890604" lon="9.692283980548382">
        <ele>922.79999999999995</ele>
        <time>2025-11-01T08:55:12Z</time>
      </trkpt>
      <trkpt lat="45.835919827222824" lon="9.692250285297632">
        <ele>922.48000000000002</ele>
        <time>2025-11-01T08:55:49Z</time>
      </trkpt>
      <trkpt lat="45.835963413119316" lon="9.692223127931356">
        <ele>922.11000000000001</ele>
        <time>2025-11-01T08:56:19Z</time>
      </trkpt>
      <trkpt lat="45.835898788645864" lon="9.692282220348716">
        <ele>921.99000000000001</ele>
        <time>2025-11-01T08:56:49Z</time>
      </trkpt>
      <trkpt lat="45.835973471403122" lon="9.69224383123219">
        <ele>921.55999999999995</ele>
        <time>2025-11-01T08:57:18Z</time>
      </trkpt>
      <trkpt lat="45.835973806679249" lon="9.692250704392791">
        <ele>921.24000000000001</ele>
        <time>2025-11-01T08:57:55Z</time>
      </trkpt>
      <trkpt lat="45.835919408127666" lon="9.69234399497509">
        <ele>921.25999999999999</ele>
        <time>2025-11-01T08:58:20Z</time>
      </trkpt>
      <trkpt lat="45.835973890498281" lon="9.692253302782774">
        <ele>921.66999999999996</ele>
        <time>2025-11-01T08:58:47Z</time>
      </trkpt>
      <trkpt lat="45.835999539121985" lon="9.692208459600806">
        <ele>921.60000000000002</ele>
        <time>2025-11-01T08:59:22Z</time>
      </trkpt>
      <trkpt lat="45.835950756445527" lon="9.692285573109984">
        <ele>921.36000000000001</ele>
        <time>2025-11-01T08:59:50Z</time>
      </trkpt>
      <trkpt lat="45.835987133905292" lon="9.692230252549052">
        <ele>921.33000000000004</ele>
        <time>2025-11-01T09:00:11Z</time>
      </trkpt>
      <trkpt lat="45.836063493043184" lon="9.692136626690626">
        <ele>921.10000000000002</ele>
        <time>2025-11-01T09:00:24Z</time>
      </trkpt>
      <trkpt lat="45.8362509123981" lon="9.691916350275278">
        <ele>921.08000000000004</ele>
        <time>2025-11-01T09:00:43Z</time>
      </trkpt>
      <trkpt lat="45.836201123893261" lon="9.692013915628195">
        <ele>921.22000000000003</ele>
        <time>2025-11-01T09:01:03Z</time>
      </trkpt>
      <trkpt lat="45.83624261431396" lon="9.692051466554403">
        <ele>921.67999999999995</ele>
        <time>2025-11-01T09:01:21Z</time>
      </trkpt>
      <trkpt lat="45.836112694814801" lon="9.69223159365356">
        <ele>921.20000000000005</ele>
        <time>2025-11-01T09:02:00Z</time>
      </trkpt>
      <trkpt lat="45.836117640137672" lon="9.692151797935367">
        <ele>921.09000000000003</ele>
        <time>2025-11-01T09:02:20Z</time>
      </trkpt>
      <trkpt lat="45.836130548268557" lon="9.692121203988791">
        <ele>921.5</ele>
        <time>2025-11-01T09:02:45Z</time>
      </trkpt>
      <trkpt lat="45.836088471114635" lon="9.692186247557402">
        <ele>921.70000000000005</ele>
        <time>2025-11-01T09:03:05Z</time>
      </trkpt>
      <trkpt lat="45.836061565205455" lon="9.692189516499639">
        <ele>921.75</ele>
        <time>2025-11-01T09:03:21Z</time>
      </trkpt>
      <trkpt lat="45.836093248799443" lon="9.692174261435866">
        <ele>921.62</ele>
        <time>2025-11-01T09:03:40Z</time>
      </trkpt>
      <trkpt lat="45.836082017049193" lon="9.692175518721342">
        <ele>921.73000000000002</ele>
        <time>2025-11-01T09:04:01Z</time>
      </trkpt>
      <trkpt lat="45.836134487763047" lon="9.692104607820511">
        <ele>922</ele>
        <time>2025-11-01T09:04:18Z</time>
      </trkpt>
      <trkpt lat="45.836108000949025" lon="9.692155821248889">
        <ele>922.02999999999997</ele>
        <time>2025-11-01T09:04:43Z</time>
      </trkpt>
      <trkpt lat="45.836143288761377" lon="9.692111480981112">
        <ele>923.40999999999997</ele>
        <time>2025-11-01T09:05:04Z</time>
      </trkpt>
      <trkpt lat="45.836178492754698" lon="9.692117013037205">
        <ele>924.30999999999995</ele>
        <time>2025-11-01T09:05:29Z</time>
      </trkpt>
      <trkpt lat="45.836119903251529" lon="9.692157162353396">
        <ele>925.32000000000005</ele>
        <time>2025-11-01T09:05:53Z</time>
      </trkpt>
      <trkpt lat="45.836041448637843" lon="9.692256236448884">
        <ele>925.71000000000004</ele>
        <time>2025-11-01T09:06:20Z</time>
      </trkpt>
      <trkpt lat="45.836053350940347" lon="9.692216757684946">
        <ele>926.08000000000004</ele>
        <time>2025-11-01T09:06:47Z</time>
      </trkpt>
      <trkpt lat="45.835959054529667" lon="9.692303761839867">
        <ele>926.58000000000004</ele>
        <time>2025-11-01T09:07:10Z</time>
      </trkpt>
      <trkpt lat="45.835998700931668" lon="9.692247854545713">
        <ele>927.35000000000002</ele>
        <time>2025-11-01T09:07:34Z</time>
      </trkpt>
      <trkpt lat="45.835952516645193" lon="9.692300828173757">
        <ele>929.10000000000002</ele>
        <time>2025-11-01T09:07:59Z</time>
      </trkpt>
      <trkpt lat="45.836035329848528" lon="9.692219523712993">
        <ele>929.30999999999995</ele>
        <time>2025-11-01T09:08:32Z</time>
      </trkpt>
      <trkpt lat="45.836082268506289" lon="9.692152133211494">
        <ele>931.21000000000004</ele>
        <time>2025-11-01T09:08:58Z</time>
      </trkpt>
      <trkpt lat="45.836088052019477" lon="9.692131513729692">
        <ele>931.16999999999996</ele>
        <time>2025-11-01T09:09:20Z</time>
      </trkpt>
      <trkpt lat="45.83614437840879" lon="9.692089604213834">
        <ele>931.55999999999995</ele>
        <time>2025-11-01T09:09:38Z</time>
      </trkpt>
      <trkpt lat="45.836059888824821" lon="9.692149953916669">
        <ele>931.51999999999998</ele>
        <time>2025-11-01T09:09:59Z</time>
      </trkpt>
      <trkpt lat="45.83612292073667" lon="9.692114582285285">
        <ele>931.33000000000004</ele>
        <time>2025-11-01T09:10:40Z</time>
      </trkpt>
      <trkpt lat="45.836195088922977" lon="9.692034786567092">
        <ele>931.21000000000004</ele>
        <time>2025-11-01T09:11:00Z</time>
      </trkpt>
      <trkpt lat="45.83603935316205" lon="9.692192450165749">
        <ele>931.35000000000002</ele>
        <time>2025-11-01T09:11:25Z</time>
      </trkpt>
      <trkpt lat="45.83602711558342" lon="9.692151295021176">
        <ele>933.46000000000004</ele>
        <time>2025-11-01T09:11:50Z</time>
      </trkpt>
      <trkpt lat="45.836023427546024" lon="9.692199574783444">
        <ele>934.23000000000002</ele>
        <time>2025-11-01T09:12:22Z</time>
      </trkpt>
      <trkpt lat="45.83601345308125" lon="9.6922174282372">
        <ele>934.00999999999999</ele>
        <time>2025-11-01T09:12:50Z</time>
      </trkpt>
      <trkpt lat="45.835995767265558" lon="9.692231258377433">
        <ele>935.49000000000001</ele>
        <time>2025-11-01T09:13:14Z</time>
      </trkpt>
      <trkpt lat="45.835976153612137" lon="9.692239640280604">
        <ele>937.22000000000003</ele>
        <time>2025-11-01T09:13:39Z</time>
      </trkpt>
      <trkpt lat="45.835927538573742" lon="9.692188259214163">
        <ele>938.41999999999996</ele>
        <time>2025-11-01T09:14:05Z</time>
      </trkpt>
      <trkpt lat="45.835995683446527" lon="9.692158671095967">
        <ele>938.36000000000001</ele>
        <time>2025-11-01T09:14:36Z</time>
      </trkpt>
      <trkpt lat="45.836012614890933" lon="9.692165376618505">
        <ele>940.04999999999995</ele>
        <time>2025-11-01T09:15:04Z</time>
      </trkpt>
      <trkpt lat="45.835968693718314" lon="9.692117013037205">
        <ele>941.63</ele>
        <time>2025-11-01T09:15:22Z</time>
      </trkpt>
      <trkpt lat="45.835976824164391" lon="9.692142829298973">
        <ele>942.19000000000005</ele>
        <time>2025-11-01T09:15:55Z</time>
      </trkpt>
      <trkpt lat="45.835915468633175" lon="9.692160850390792">
        <ele>943.34000000000003</ele>
        <time>2025-11-01T09:16:20Z</time>
      </trkpt>
      <trkpt lat="45.835831146687269" lon="9.69219253398478">
        <ele>943.49000000000001</ele>
        <time>2025-11-01T09:16:34Z</time>
      </trkpt>
      <trkpt lat="45.835726959630847" lon="9.692187085747719">
        <ele>943.46000000000004</ele>
        <time>2025-11-01T09:16:48Z</time>
      </trkpt>
      <trkpt lat="45.835745986551046" lon="9.692155653610826">
        <ele>943.58000000000004</ele>
        <time>2025-11-01T09:17:05Z</time>
      </trkpt>
      <trkpt lat="45.835811533033848" lon="9.692114079371095">
        <ele>944.73000000000002</ele>
        <time>2025-11-01T09:17:24Z</time>
      </trkpt>
      <trkpt lat="45.835978584364057" lon="9.692135117948055">
        <ele>944.75999999999999</ele>
        <time>2025-11-01T09:17:47Z</time>
      </trkpt>
      <trkpt lat="45.835994845256209" lon="9.692126987501979">
        <ele>945.46000000000004</ele>
        <time>2025-11-01T09:18:17Z</time>
      </trkpt>
      <trkpt lat="45.835879761725664" lon="9.692133525386453">
        <ele>946.11000000000001</ele>
        <time>2025-11-01T09:18:52Z</time>
      </trkpt>
      <trkpt lat="45.835877833887935" lon="9.692129921168089">
        <ele>946.27999999999997</ele>
        <time>2025-11-01T09:19:18Z</time>
      </trkpt>
      <trkpt lat="45.835908344015479" lon="9.692144673317671">
        <ele>946.28999999999996</ele>
        <time>2025-11-01T09:19:47Z</time>
      </trkpt>
      <trkpt lat="45.835936004295945" lon="9.692130004987121">
        <ele>947.94000000000005</ele>
        <time>2025-11-01T09:20:50Z</time>
      </trkpt>
      <trkpt lat="45.83592401817441" lon="9.692107625305653">
        <ele>948.79999999999995</ele>
        <time>2025-11-01T09:21:36Z</time>
      </trkpt>
      <trkpt lat="45.835951929911971" lon="9.692087760195136">
        <ele>950.01999999999998</ele>
        <time>2025-11-01T09:22:43Z</time>
      </trkpt>
      <trkpt lat="45.835968106985092" lon="9.692047946155071">
        <ele>949.84000000000003</ele>
        <time>2025-11-01T09:23:51Z</time>
      </trkpt>
      <trkpt lat="45.835948744788766" lon="9.692084407433868">
        <ele>951.50999999999999</ele>
        <time>2025-11-01T09:24:21Z</time>
      </trkpt>
      <trkpt lat="45.83597238175571" lon="9.692078959196806">
        <ele>955.09000000000003</ele>
        <time>2025-11-01T09:25:18Z</time>
      </trkpt>
      <trkpt lat="45.835923850536346" lon="9.692097567021847">
        <ele>954.25</ele>
        <time>2025-11-01T09:26:32Z</time>
      </trkpt>
      <trkpt lat="45.835903147235513" lon="9.692084658890963">
        <ele>956.12</ele>
        <time>2025-11-01T09:27:46Z</time>
      </trkpt>
      <trkpt lat="45.835942793637514" lon="9.692079210653901">
        <ele>959.13</ele>
        <time>2025-11-01T09:29:04Z</time>
      </trkpt>
      <trkpt lat="45.835963413119316" lon="9.692052137106657">
        <ele>960.22000000000003</ele>
        <time>2025-11-01T09:30:04Z</time>
      </trkpt>
      <trkpt lat="45.835980176925659" lon="9.692094968631864">
        <ele>961.57000000000005</ele>
        <time>2025-11-01T09:32:35Z</time>
      </trkpt>
      <trkpt lat="45.83599098958075" lon="9.692015005275607">
        <ele>965.75</ele>
        <time>2025-11-01T09:34:41Z</time>
      </trkpt>
      <trkpt lat="45.835928292945027" lon="9.692092873156071">
        <ele>961.86000000000001</ele>
        <time>2025-11-01T09:35:51Z</time>
      </trkpt>
      <trkpt lat="45.835901973769069" lon="9.692078372463584">
        <ele>956.36000000000001</ele>
        <time>2025-11-01T09:37:20Z</time>
      </trkpt>
      <trkpt lat="45.835870206356049" lon="9.692065045237541">
        <ele>952.15999999999997</ele>
        <time>2025-11-01T09:39:06Z</time>
      </trkpt>
      <trkpt lat="45.835813879966736" lon="9.692094549536705">
        <ele>948.51999999999998</ele>
        <time>2025-11-01T09:40:25Z</time>
      </trkpt>
      <trkpt lat="45.835765851661563" lon="9.692110642790794">
        <ele>941.91999999999996</ele>
        <time>2025-11-01T09:42:17Z</time>
      </trkpt>
      <trkpt lat="45.835768533870578" lon="9.6920879278332">
        <ele>938.85000000000002</ele>
        <time>2025-11-01T09:43:48Z</time>
      </trkpt>
      <trkpt lat="45.835769036784768" lon="9.69207476824522">
        <ele>932.76999999999998</ele>
        <time>2025-11-01T09:48:24Z</time>
      </trkpt>
      <trkpt lat="45.835765013471246" lon="9.69210259616375">
        <ele>928.97000000000003</ele>
        <time>2025-11-01T09:50:21Z</time>
      </trkpt>
      <trkpt lat="45.835764929652214" lon="9.692147942259908">
        <ele>926.75999999999999</ele>
        <time>2025-11-01T09:50:59Z</time>
      </trkpt>
      <trkpt lat="45.835673399269581" lon="9.692204855382443">
        <ele>923.19000000000005</ele>
        <time>2025-11-01T09:51:18Z</time>
      </trkpt>
      <trkpt lat="45.835702316835523" lon="9.69228146597743">
        <ele>920.49000000000001</ele>
        <time>2025-11-01T09:52:22Z</time>
      </trkpt>
      <trkpt lat="45.835737101733685" lon="9.692420857027173">
        <ele>917.04999999999995</ele>
        <time>2025-11-01T09:52:39Z</time>
      </trkpt>
      <trkpt lat="45.835695695132017" lon="9.692558320239186">
        <ele>913.60000000000002</ele>
        <time>2025-11-01T09:52:51Z</time>
      </trkpt>
      <trkpt lat="45.835648253560066" lon="9.692692346870899">
        <ele>910.83000000000004</ele>
        <time>2025-11-01T09:53:15Z</time>
      </trkpt>
      <trkpt lat="45.835647666826844" lon="9.692838359624147">
        <ele>909.63999999999999</ele>
        <time>2025-11-01T09:53:27Z</time>
      </trkpt>
      <trkpt lat="45.835642386227846" lon="9.692981941625476">
        <ele>908.38</ele>
        <time>2025-11-01T09:53:39Z</time>
      </trkpt>
      <trkpt lat="45.835601733997464" lon="9.69311211258173">
        <ele>905.78999999999996</ele>
        <time>2025-11-01T09:53:52Z</time>
      </trkpt>
      <trkpt lat="45.835553957149386" lon="9.693179838359356">
        <ele>904.33000000000004</ele>
        <time>2025-11-01T09:54:15Z</time>
      </trkpt>
      <trkpt lat="45.835581449791789" lon="9.693175060674548">
        <ele>903.42999999999995</ele>
        <time>2025-11-01T09:59:32Z</time>
      </trkpt>
      <trkpt lat="45.835597710683942" lon="9.693216718733311">
        <ele>903.88999999999999</ele>
        <time>2025-11-01T10:00:09Z</time>
      </trkpt>
      <trkpt lat="45.835556974634528" lon="9.693293748423457">
        <ele>903.84000000000003</ele>
        <time>2025-11-01T10:00:34Z</time>
      </trkpt>
      <trkpt lat="45.835504839196801" lon="9.693414531648159">
        <ele>907.30999999999995</ele>
        <time>2025-11-01T10:00:55Z</time>
      </trkpt>
      <trkpt lat="45.835419092327356" lon="9.693534644320607">
        <ele>910.51999999999998</ele>
        <time>2025-11-01T10:01:19Z</time>
      </trkpt>
      <trkpt lat="45.835404759272933" lon="9.693613518029451">
        <ele>913.32000000000005</ele>
        <time>2025-11-01T10:01:52Z</time>
      </trkpt>
      <trkpt lat="45.835397634655237" lon="9.693734552711248">
        <ele>917.78999999999996</ele>
        <time>2025-11-01T10:02:25Z</time>
      </trkpt>
      <trkpt lat="45.83532739430666" lon="9.693843685090542">
        <ele>921.27999999999997</ele>
        <time>2025-11-01T10:02:50Z</time>
      </trkpt>
      <trkpt lat="45.835369974374771" lon="9.693916020914912">
        <ele>924.98000000000002</ele>
        <time>2025-11-01T10:03:25Z</time>
      </trkpt>
      <trkpt lat="45.835355641320348" lon="9.693942172452807">
        <ele>927.12</ele>
        <time>2025-11-01T10:05:40Z</time>
      </trkpt>
      <trkpt lat="45.835317671298981" lon="9.694053651764989">
        <ele>931.87</ele>
        <time>2025-11-01T10:05:59Z</time>
      </trkpt>
      <trkpt lat="45.835237707942724" lon="9.69412456266582">
        <ele>933.72000000000003</ele>
        <time>2025-11-01T10:06:20Z</time>
      </trkpt>
      <trkpt lat="45.835151374340057" lon="9.694181978702545">
        <ele>935.64999999999998</ele>
        <time>2025-11-01T10:06:38Z</time>
      </trkpt>
      <trkpt lat="45.835073841735721" lon="9.694265797734261">
        <ele>939.25999999999999</ele>
        <time>2025-11-01T10:07:04Z</time>
      </trkpt>
      <trkpt lat="45.834999829530716" lon="9.694343917071819">
        <ele>942.15999999999997</ele>
        <time>2025-11-01T10:07:23Z</time>
      </trkpt>
      <trkpt lat="45.834916094318032" lon="9.694415414705873">
        <ele>943.16999999999996</ele>
        <time>2025-11-01T10:07:39Z</time>
      </trkpt>
      <trkpt lat="45.834856331348419" lon="9.69451105222106">
        <ele>944.82000000000005</ele>
        <time>2025-11-01T10:08:10Z</time>
      </trkpt>
      <trkpt lat="45.834836885333061" lon="9.694630661979318">
        <ele>948.79999999999995</ele>
        <time>2025-11-01T10:08:35Z</time>
      </trkpt>
      <trkpt lat="45.834756167605519" lon="9.694724539294839">
        <ele>952</ele>
        <time>2025-11-01T10:09:02Z</time>
      </trkpt>
      <trkpt lat="45.834794556722045" lon="9.694810956716538">
        <ele>957.11000000000001</ele>
        <time>2025-11-01T10:09:31Z</time>
      </trkpt>
      <trkpt lat="45.834869407117367" lon="9.694871893152595">
        <ele>961.01999999999998</ele>
        <time>2025-11-01T10:10:03Z</time>
      </trkpt>
      <trkpt lat="45.834861360490322" lon="9.694947749376297">
        <ele>965.21000000000004</ele>
        <time>2025-11-01T10:10:36Z</time>
      </trkpt>
      <trkpt lat="45.834806459024549" lon="9.695027796551585">
        <ele>968.44000000000005</ele>
        <time>2025-11-01T10:11:16Z</time>
      </trkpt>
      <trkpt lat="45.834780894219875" lon="9.695001896470785">
        <ele>968.76999999999998</ele>
        <time>2025-11-01T10:24:35Z</time>
      </trkpt>
      <trkpt lat="45.834797993302345" lon="9.695015894249082">
        <ele>968.57000000000005</ele>
        <time>2025-11-01T10:26:48Z</time>
      </trkpt>
      <trkpt lat="45.834741750732064" lon="9.695007763803005">
        <ele>967.91999999999996</ele>
        <time>2025-11-01T10:32:10Z</time>
      </trkpt>
      <trkpt lat="45.834750719368458" lon="9.695017570629716">
        <ele>970.12</ele>
        <time>2025-11-01T10:32:49Z</time>
      </trkpt>
      <trkpt lat="45.834689028561115" lon="9.695042800158262">
        <ele>974.49000000000001</ele>
        <time>2025-11-01T10:33:23Z</time>
      </trkpt>
      <trkpt lat="45.834672516211867" lon="9.695093175396323">
        <ele>974.95000000000005</ele>
        <time>2025-11-01T10:33:49Z</time>
      </trkpt>
      <trkpt lat="45.834668325260282" lon="9.695058641955257">
        <ele>976.54999999999995</ele>
        <time>2025-11-01T10:34:14Z</time>
      </trkpt>
      <trkpt lat="45.834648376330733" lon="9.695031316950917">
        <ele>978.62</ele>
        <time>2025-11-01T10:34:52Z</time>
      </trkpt>
      <trkpt lat="45.834638653323054" lon="9.695017319172621">
        <ele>980.99000000000001</ele>
        <time>2025-11-01T10:35:26Z</time>
      </trkpt>
      <trkpt lat="45.83458811044693" lon="9.694998627528548">
        <ele>983.27999999999997</ele>
        <time>2025-11-01T10:35:51Z</time>
      </trkpt>
      <trkpt lat="45.834634797647595" lon="9.695011787116528">
        <ele>983.01999999999998</ele>
        <time>2025-11-01T10:36:48Z</time>
      </trkpt>
      <trkpt lat="45.834651058539748" lon="9.695035004988313">
        <ele>982.47000000000003</ele>
        <time>2025-11-01T10:37:35Z</time>
      </trkpt>
      <trkpt lat="45.834634378552437" lon="9.695049757137895">
        <ele>982.45000000000005</ele>
        <time>2025-11-01T10:38:15Z</time>
      </trkpt>
      <trkpt lat="45.83465114235878" lon="9.695010026916862">
        <ele>982</ele>
        <time>2025-11-01T10:39:07Z</time>
      </trkpt>
      <trkpt lat="45.834675952792168" lon="9.695029389113188">
        <ele>982.15999999999997</ele>
        <time>2025-11-01T10:40:06Z</time>
      </trkpt>
      <trkpt lat="45.834667319431901" lon="9.694990497082472">
        <ele>981.74000000000001</ele>
        <time>2025-11-01T10:40:37Z</time>
      </trkpt>
      <trkpt lat="45.834686933085322" lon="9.695018660277128">
        <ele>981.63</ele>
        <time>2025-11-01T10:40:56Z</time>
      </trkpt>
      <trkpt lat="45.834652315825224" lon="9.694986892864108">
        <ele>981.58000000000004</ele>
        <time>2025-11-01T10:41:42Z</time>
      </trkpt>
      <trkpt lat="45.834697494283319" lon="9.695000890642405">
        <ele>981.23000000000002</ele>
        <time>2025-11-01T10:42:33Z</time>
      </trkpt>
      <trkpt lat="45.834683664143085" lon="9.694996112957597">
        <ele>981.28999999999996</ele>
        <time>2025-11-01T10:43:12Z</time>
      </trkpt>
      <trkpt lat="45.834706546738744" lon="9.695022935047746">
        <ele>981.07000000000005</ele>
        <time>2025-11-01T10:43:54Z</time>
      </trkpt>
      <trkpt lat="45.834715263918042" lon="9.695021510124207">
        <ele>980.91999999999996</ele>
        <time>2025-11-01T10:45:32Z</time>
      </trkpt>
      <trkpt lat="45.834688358008862" lon="9.695022013038397">
        <ele>981.24000000000001</ele>
        <time>2025-11-01T10:46:48Z</time>
      </trkpt>
      <trkpt lat="45.834666565060616" lon="9.695024527609348">
        <ele>981.13999999999999</ele>
        <time>2025-11-01T10:47:20Z</time>
      </trkpt>
      <trkpt lat="45.834705624729395" lon="9.695012457668781">
        <ele>981.03999999999996</ele>
        <time>2025-11-01T10:48:04Z</time>
      </trkpt>
      <trkpt lat="45.834693135693669" lon="9.695036429911852">
        <ele>980.94000000000005</ele>
        <time>2025-11-01T10:48:51Z</time>
      </trkpt>
      <trkpt lat="45.834679221734405" lon="9.695040369406343">
        <ele>980.99000000000001</ele>
        <time>2025-11-01T10:49:24Z</time>
      </trkpt>
      <trkpt lat="45.834707217290998" lon="9.695016564801335">
        <ele>981.23000000000002</ele>
        <time>2025-11-01T10:50:27Z</time>
      </trkpt>
      <trkpt lat="45.834714593365788" lon="9.695017905905843">
        <ele>981.40999999999997</ele>
        <time>2025-11-01T10:51:16Z</time>
      </trkpt>
      <trkpt lat="45.834701014682651" lon="9.69501337967813">
        <ele>981.33000000000004</ele>
        <time>2025-11-01T10:52:14Z</time>
      </trkpt>
      <trkpt lat="45.834652651101351" lon="9.695013128221035">
        <ele>981.46000000000004</ele>
        <time>2025-11-01T10:53:01Z</time>
      </trkpt>
      <trkpt lat="45.834692968055606" lon="9.694994939491153">
        <ele>981.26999999999998</ele>
        <time>2025-11-01T10:54:10Z</time>
      </trkpt>
      <trkpt lat="45.834674863144755" lon="9.695021342486143">
        <ele>981.38999999999999</ele>
        <time>2025-11-01T10:55:07Z</time>
      </trkpt>
      <trkpt lat="45.834638820961118" lon="9.695031065493822">
        <ele>981.51999999999998</ele>
        <time>2025-11-01T10:55:52Z</time>
      </trkpt>
      <trkpt lat="45.834640245884657" lon="9.695026371628046">
        <ele>981.34000000000003</ele>
        <time>2025-11-01T10:56:48Z</time>
      </trkpt>
      <trkpt lat="45.834637982770801" lon="9.695026455447078">
        <ele>981.29999999999995</ele>
        <time>2025-11-01T10:57:46Z</time>
      </trkpt>
      <trkpt lat="45.834663631394506" lon="9.694995526224375">
        <ele>981.28999999999996</ele>
        <time>2025-11-01T10:58:56Z</time>
      </trkpt>
      <trkpt lat="45.834672516211867" lon="9.695012206211686">
        <ele>980.95000000000005</ele>
        <time>2025-11-01T11:00:04Z</time>
      </trkpt>
      <trkpt lat="45.834658350795507" lon="9.695003991946578">
        <ele>981.00999999999999</ele>
        <time>2025-11-01T11:01:15Z</time>
      </trkpt>
      <trkpt lat="45.834673186764121" lon="9.694982534274459">
        <ele>981.10000000000002</ele>
        <time>2025-11-01T11:01:52Z</time>
      </trkpt>
      <trkpt lat="45.834689531475306" lon="9.694965770468116">
        <ele>982.70000000000005</ele>
        <time>2025-11-01T11:02:38Z</time>
      </trkpt>
      <trkpt lat="45.834624990820885" lon="9.694979852065444">
        <ele>983.92999999999995</ele>
        <time>2025-11-01T11:03:04Z</time>
      </trkpt>
      <trkpt lat="45.834683161228895" lon="9.695025701075792">
        <ele>983.96000000000004</ele>
        <time>2025-11-01T11:03:47Z</time>
      </trkpt>
      <trkpt lat="45.834672851487994" lon="9.694985970854759">
        <ele>984.99000000000001</ele>
        <time>2025-11-01T11:04:27Z</time>
      </trkpt>
      <trkpt lat="45.834641922265291" lon="9.695004746317864">
        <ele>986.79999999999995</ele>
        <time>2025-11-01T11:05:31Z</time>
      </trkpt>
      <trkpt lat="45.834672097116709" lon="9.694998962804675">
        <ele>988.86000000000001</ele>
        <time>2025-11-01T11:06:14Z</time>
      </trkpt>
      <trkpt lat="45.834696236997843" lon="9.695017654448748">
        <ele>988.29999999999995</ele>
        <time>2025-11-01T11:07:12Z</time>
      </trkpt>
      <trkpt lat="45.834706127643585" lon="9.695004327222705">
        <ele>988.37</ele>
        <time>2025-11-01T11:07:43Z</time>
      </trkpt>
      <trkpt lat="45.834730938076973" lon="9.695015558972955">
        <ele>987.94000000000005</ele>
        <time>2025-11-01T11:08:27Z</time>
      </trkpt>
      <trkpt lat="45.83474057726562" lon="9.695023437961936">
        <ele>987.77999999999997</ele>
        <time>2025-11-01T11:09:23Z</time>
      </trkpt>
      <trkpt lat="45.834744935855269" lon="9.695004746317864">
        <ele>987.64999999999998</ele>
        <time>2025-11-01T11:10:36Z</time>
      </trkpt>
      <trkpt lat="45.834749126806855" lon="9.695010529831052">
        <ele>987.72000000000003</ele>
        <time>2025-11-01T11:11:42Z</time>
      </trkpt>
      <trkpt lat="45.834756419062614" lon="9.695000471547246">
        <ele>987.80999999999995</ele>
        <time>2025-11-01T11:12:37Z</time>
      </trkpt>
      <trkpt lat="45.834759688004851" lon="9.695013212040067">
        <ele>988.05999999999995</ele>
        <time>2025-11-01T11:13:18Z</time>
      </trkpt>
      <trkpt lat="45.834747701883316" lon="9.695003991946578">
        <ele>988.02999999999997</ele>
        <time>2025-11-01T11:13:55Z</time>
      </trkpt>
      <trkpt lat="45.834705960005522" lon="9.69500214792788">
        <ele>988.84000000000003</ele>
        <time>2025-11-01T11:14:42Z</time>
      </trkpt>
      <trkpt lat="45.834709983319044" lon="9.694995945319533">
        <ele>989.29999999999995</ele>
        <time>2025-11-01T11:15:37Z</time>
      </trkpt>
      <trkpt lat="45.834649130702019" lon="9.695026203989983">
        <ele>991.54999999999995</ele>
        <time>2025-11-01T11:15:55Z</time>
      </trkpt>
      <trkpt lat="45.834638820961118" lon="9.695104071870446">
        <ele>994.86000000000001</ele>
        <time>2025-11-01T11:16:42Z</time>
      </trkpt>
      <trkpt lat="45.834661116823554" lon="9.695161655545235">
        <ele>995.13</ele>
        <time>2025-11-01T11:17:03Z</time>
      </trkpt>
      <trkpt lat="45.834668576717377" lon="9.695097366347909">
        <ele>997.65999999999997</ele>
        <time>2025-11-01T11:17:31Z</time>
      </trkpt>
      <trkpt lat="45.834656339138746" lon="9.695141958072782">
        <ele>1001.01</ele>
        <time>2025-11-01T11:18:35Z</time>
      </trkpt>
      <trkpt lat="45.834653489291668" lon="9.695251174271107">
        <ele>997.72000000000003</ele>
        <time>2025-11-01T11:19:43Z</time>
      </trkpt>
      <trkpt lat="45.83461107686162" lon="9.695253437384963">
        <ele>990.67999999999995</ele>
        <time>2025-11-01T11:21:44Z</time>
      </trkpt>
      <trkpt lat="45.834595654159784" lon="9.695289898663759">
        <ele>989.00999999999999</ele>
        <time>2025-11-01T11:22:14Z</time>
      </trkpt>
      <trkpt lat="45.834590373560786" lon="9.695293921977282">
        <ele>990.25999999999999</ele>
        <time>2025-11-01T11:25:39Z</time>
      </trkpt>
      <trkpt lat="45.834613675251603" lon="9.695394923910499">
        <ele>990.80999999999995</ele>
        <time>2025-11-01T11:27:11Z</time>
      </trkpt>
      <trkpt lat="45.834615938365459" lon="9.695537080988288">
        <ele>992.75999999999999</ele>
        <time>2025-11-01T11:27:58Z</time>
      </trkpt>
      <trkpt lat="45.834623230621219" lon="9.695648141205311">
        <ele>993.50999999999999</ele>
        <time>2025-11-01T11:28:33Z</time>
      </trkpt>
      <trkpt lat="45.834631444886327" lon="9.695661636069417">
        <ele>996.60000000000002</ele>
        <time>2025-11-01T11:30:24Z</time>
      </trkpt>
      <trkpt lat="45.834631361067295" lon="9.695775713771582">
        <ele>998.27999999999997</ele>
        <time>2025-11-01T11:31:05Z</time>
      </trkpt>
      <trkpt lat="45.834615267813206" lon="9.695776635780931">
        <ele>1002.01</ele>
        <time>2025-11-01T11:32:16Z</time>
      </trkpt>
      <trkpt lat="45.834636641666293" lon="9.695866238325834">
        <ele>1006.85</ele>
        <time>2025-11-01T11:33:13Z</time>
      </trkpt>
      <trkpt lat="45.834651477634907" lon="9.695850228890777">
        <ele>1010.29</ele>
        <time>2025-11-01T11:33:43Z</time>
      </trkpt>
      <trkpt lat="45.834663128480315" lon="9.695819048210979">
        <ele>1012.71</ele>
        <time>2025-11-01T11:34:06Z</time>
      </trkpt>
      <trkpt lat="45.834663882851601" lon="9.695761632174254">
        <ele>1016.29</ele>
        <time>2025-11-01T11:34:48Z</time>
      </trkpt>
      <trkpt lat="45.834632366895676" lon="9.695779988542199">
        <ele>1019.61</ele>
        <time>2025-11-01T11:35:33Z</time>
      </trkpt>
      <trkpt lat="45.834607137367129" lon="9.695796836167574">
        <ele>1023.26</ele>
        <time>2025-11-01T11:36:12Z</time>
      </trkpt>
      <trkpt lat="45.83463747985661" lon="9.695809409022331">
        <ele>1025.21</ele>
        <time>2025-11-01T11:37:05Z</time>
      </trkpt>
      <trkpt lat="45.834564724937081" lon="9.695798177272081">
        <ele>1027.3900000000001</ele>
        <time>2025-11-01T11:38:28Z</time>
      </trkpt>
      <trkpt lat="45.834550894796848" lon="9.695820389315486">
        <ele>1031.1199999999999</ele>
        <time>2025-11-01T11:46:16Z</time>
      </trkpt>
      <trkpt lat="45.834530275315046" lon="9.695822149515152">
        <ele>1032.2</ele>
        <time>2025-11-01T11:47:43Z</time>
      </trkpt>
      <trkpt lat="45.834475290030241" lon="9.695943687111139">
        <ele>1037.1600000000001</ele>
        <time>2025-11-01T11:48:08Z</time>
      </trkpt>
      <trkpt lat="45.834403205662966" lon="9.696029517799616">
        <ele>1042.5699999999999</ele>
        <time>2025-11-01T11:48:36Z</time>
      </trkpt>
      <trkpt lat="45.834310250356793" lon="9.696074863895774">
        <ele>1047</ele>
        <time>2025-11-01T11:49:03Z</time>
      </trkpt>
      <trkpt lat="45.834253169596195" lon="9.696066901087761">
        <ele>1051.03</ele>
        <time>2025-11-01T11:49:29Z</time>
      </trkpt>
      <trkpt lat="45.834173038601875" lon="9.696116438135505">
        <ele>1051.74</ele>
        <time>2025-11-01T11:49:42Z</time>
      </trkpt>
      <trkpt lat="45.834093829616904" lon="9.696172345429659">
        <ele>1055.4200000000001</ele>
        <time>2025-11-01T11:50:03Z</time>
      </trkpt>
      <trkpt lat="45.834092991426587" lon="9.696224061772227">
        <ele>1058.5</ele>
        <time>2025-11-01T11:53:18Z</time>
      </trkpt>
      <trkpt lat="45.834079496562481" lon="9.696234120056033">
        <ele>1059.3499999999999</ele>
        <time>2025-11-01T11:57:23Z</time>
      </trkpt>
      <trkpt lat="45.834077652543783" lon="9.696230515837669">
        <ele>1058.9000000000001</ele>
        <time>2025-11-01T11:59:19Z</time>
      </trkpt>
      <trkpt lat="45.834068180993199" lon="9.696349119767547">
        <ele>1054.5999999999999</ele>
        <time>2025-11-01T12:01:38Z</time>
      </trkpt>
      <trkpt lat="45.834128111600876" lon="9.696325147524476">
        <ele>1050.1700000000001</ele>
        <time>2025-11-01T12:02:10Z</time>
      </trkpt>
      <trkpt lat="45.834155352786183" lon="9.696338810026646">
        <ele>1045.8399999999999</ele>
        <time>2025-11-01T12:02:54Z</time>
      </trkpt>
      <trkpt lat="45.83408335223794" lon="9.696410056203604">
        <ele>1041.5899999999999</ele>
        <time>2025-11-01T12:03:20Z</time>
      </trkpt>
      <trkpt lat="45.834038676694036" lon="9.696507956832647">
        <ele>1035.6099999999999</ele>
        <time>2025-11-01T12:03:58Z</time>
      </trkpt>
      <trkpt lat="45.833939602598548" lon="9.696561517193914">
        <ele>1033.72</ele>
        <time>2025-11-01T12:04:17Z</time>
      </trkpt>
      <trkpt lat="45.833849748596549" lon="9.696608120575547">
        <ele>1033.8099999999999</ele>
        <time>2025-11-01T12:04:36Z</time>
      </trkpt>
      <trkpt lat="45.833846982568502" lon="9.696750026196241">
        <ele>1028.3</ele>
        <time>2025-11-01T12:05:07Z</time>
      </trkpt>
      <trkpt lat="45.833799876272678" lon="9.696860834956169">
        <ele>1025.26</ele>
        <time>2025-11-01T12:05:18Z</time>
      </trkpt>
      <trkpt lat="45.83375402726233" lon="9.696980360895395">
        <ele>1022.08</ele>
        <time>2025-11-01T12:05:29Z</time>
      </trkpt>
      <trkpt lat="45.833727791905403" lon="9.697101982310414">
        <ele>1020.21</ele>
        <time>2025-11-01T12:05:38Z</time>
      </trkpt>
      <trkpt lat="45.833695605397224" lon="9.69721857458353">
        <ele>1020.84</ele>
        <time>2025-11-01T12:05:48Z</time>
      </trkpt>
      <trkpt lat="45.83367045968771" lon="9.697325611487031">
        <ele>1021.91</ele>
        <time>2025-11-01T12:06:00Z</time>
      </trkpt>
      <trkpt lat="45.833631986752152" lon="9.697444634512067">
        <ele>1020.9299999999999</ele>
        <time>2025-11-01T12:06:10Z</time>
      </trkpt>
      <trkpt lat="45.833614636212587" lon="9.697569692507386">
        <ele>1016.91</ele>
        <time>2025-11-01T12:06:23Z</time>
      </trkpt>
      <trkpt lat="45.83364556543529" lon="9.697709251195192">
        <ele>1013.5599999999999</ele>
        <time>2025-11-01T12:06:36Z</time>
      </trkpt>
      <trkpt lat="45.833641709759831" lon="9.697843613103032">
        <ele>1013.3099999999999</ele>
        <time>2025-11-01T12:06:48Z</time>
      </trkpt>
      <trkpt lat="45.833689402788877" lon="9.697982249781489">
        <ele>1013.51</ele>
        <time>2025-11-01T12:07:04Z</time>
      </trkpt>
      <trkpt lat="45.833838684484363" lon="9.69811568967998">
        <ele>1015.1900000000001</ele>
        <time>2025-11-01T12:07:18Z</time>
      </trkpt>
      <trkpt lat="45.833940356969833" lon="9.698198586702347">
        <ele>1017.39</ele>
        <time>2025-11-01T12:07:33Z</time>
      </trkpt>
      <trkpt lat="45.833984194323421" lon="9.698320375755429">
        <ele>1017.88</ele>
        <time>2025-11-01T12:07:43Z</time>
      </trkpt>
      <trkpt lat="45.834056530147791" lon="9.698411319404841">
        <ele>1017.02</ele>
        <time>2025-11-01T12:07:52Z</time>
      </trkpt>
      <trkpt lat="45.834132554009557" lon="9.698510644957423">
        <ele>1016.48</ele>
        <time>2025-11-01T12:08:05Z</time>
      </trkpt>
      <trkpt lat="45.834205895662308" lon="9.698605109006167">
        <ele>1015.39</ele>
        <time>2025-11-01T12:08:15Z</time>
      </trkpt>
      <trkpt lat="45.834258869290352" lon="9.698709128424525">
        <ele>1015.27</ele>
        <time>2025-11-01T12:08:25Z</time>
      </trkpt>
      <trkpt lat="45.834294408559799" lon="9.698818428441882">
        <ele>1015.65</ele>
        <time>2025-11-01T12:08:38Z</time>
      </trkpt>
      <trkpt lat="45.834271861240268" lon="9.698952455073595">
        <ele>1013.08</ele>
        <time>2025-11-01T12:08:50Z</time>
      </trkpt>
      <trkpt lat="45.834283931180835" lon="9.699098467826843">
        <ele>1010.58</ele>
        <time>2025-11-01T12:09:04Z</time>
      </trkpt>
      <trkpt lat="45.834194412454963" lon="9.699180526658893">
        <ele>1008.28</ele>
        <time>2025-11-01T12:09:17Z</time>
      </trkpt>
      <trkpt lat="45.834103301167488" lon="9.699269458651543">
        <ele>1005.54</ele>
        <time>2025-11-01T12:09:27Z</time>
      </trkpt>
      <trkpt lat="45.834012441337109" lon="9.699344811961055">
        <ele>1002.65</ele>
        <time>2025-11-01T12:09:37Z</time>
      </trkpt>
      <trkpt lat="45.833937674760818" lon="9.699440617114306">
        <ele>999.30999999999995</ele>
        <time>2025-11-01T12:09:48Z</time>
      </trkpt>
      <trkpt lat="45.833858381956816" lon="9.699529968202114">
        <ele>996.34000000000003</ele>
        <time>2025-11-01T12:10:01Z</time>
      </trkpt>
      <trkpt lat="45.83376576192677" lon="9.699619486927986">
        <ele>992.60000000000002</ele>
        <time>2025-11-01T12:10:16Z</time>
      </trkpt>
      <trkpt lat="45.833721254020929" lon="9.699731050059199">
        <ele>991.07000000000005</ele>
        <time>2025-11-01T12:10:26Z</time>
      </trkpt>
      <trkpt lat="45.833685882389545" lon="9.699847307056189">
        <ele>989.44000000000005</ele>
        <time>2025-11-01T12:10:45Z</time>
      </trkpt>
      <trkpt lat="45.833620335906744" lon="9.699798105284572">
        <ele>987.63</ele>
        <time>2025-11-01T12:11:08Z</time>
      </trkpt>
      <trkpt lat="45.833605667576194" lon="9.699802715331316">
        <ele>986.59000000000003</ele>
        <time>2025-11-01T12:11:54Z</time>
      </trkpt>
      <trkpt lat="45.833544814959168" lon="9.699861221015453">
        <ele>986.72000000000003</ele>
        <time>2025-11-01T12:12:31Z</time>
      </trkpt>
      <trkpt lat="45.833571720868349" lon="9.6998674236238">
        <ele>986.69000000000005</ele>
        <time>2025-11-01T12:13:01Z</time>
      </trkpt>
      <trkpt lat="45.833598123863339" lon="9.699770528823137">
        <ele>986.80999999999995</ele>
        <time>2025-11-01T12:13:26Z</time>
      </trkpt>
      <trkpt lat="45.83357909694314" lon="9.699812941253185">
        <ele>987.19000000000005</ele>
        <time>2025-11-01T12:14:27Z</time>
      </trkpt>
      <trkpt lat="45.833597788587213" lon="9.699781509116292">
        <ele>987.5</ele>
        <time>2025-11-01T12:15:08Z</time>
      </trkpt>
      <trkpt lat="45.833562249317765" lon="9.699814198538661">
        <ele>987.49000000000001</ele>
        <time>2025-11-01T12:15:28Z</time>
      </trkpt>
      <trkpt lat="45.833577588200569" lon="9.699860969558358">
        <ele>987.54999999999995</ele>
        <time>2025-11-01T12:16:01Z</time>
      </trkpt>
      <trkpt lat="45.833527129143476" lon="9.699968257918954">
        <ele>987.63999999999999</ele>
        <time>2025-11-01T12:16:16Z</time>
      </trkpt>
      <trkpt lat="45.833533331751823" lon="9.69994948245585">
        <ele>987.70000000000005</ele>
        <time>2025-11-01T12:16:53Z</time>
      </trkpt>
      <trkpt lat="45.833528973162174" lon="9.699952499940991">
        <ele>988.22000000000003</ele>
        <time>2025-11-01T12:17:54Z</time>
      </trkpt>
      <trkpt lat="45.833563422784209" lon="9.699845965951681">
        <ele>989.63999999999999</ele>
        <time>2025-11-01T12:19:14Z</time>
      </trkpt>
      <trkpt lat="45.83359133452177" lon="9.69976432621479">
        <ele>990.38999999999999</ele>
        <time>2025-11-01T12:19:58Z</time>
      </trkpt>
      <trkpt lat="45.833543138578534" lon="9.699798105284572">
        <ele>990.32000000000005</ele>
        <time>2025-11-01T12:20:45Z</time>
      </trkpt>
      <trkpt lat="45.833494104444981" lon="9.699670867994428">
        <ele>990.44000000000005</ele>
        <time>2025-11-01T12:21:17Z</time>
      </trkpt>
      <trkpt lat="45.83345546387136" lon="9.699652092531323">
        <ele>990.05999999999995</ele>
        <time>2025-11-01T12:21:56Z</time>
      </trkpt>
      <trkpt lat="45.833368124440312" lon="9.699609177187085">
        <ele>990.76999999999998</ele>
        <time>2025-11-01T12:22:05Z</time>
      </trkpt>
      <trkpt lat="45.833280617371202" lon="9.699541619047523">
        <ele>992.44000000000005</ele>
        <time>2025-11-01T12:22:17Z</time>
      </trkpt>
      <trkpt lat="45.833189506083727" lon="9.699476743116975">
        <ele>992.86000000000001</ele>
        <time>2025-11-01T12:22:28Z</time>
      </trkpt>
      <trkpt lat="45.833135358989239" lon="9.699344728142023">
        <ele>993.50999999999999</ele>
        <time>2025-11-01T12:22:40Z</time>
      </trkpt>
      <trkpt lat="45.833104597404599" lon="9.699178263545036">
        <ele>995.24000000000001</ele>
        <time>2025-11-01T12:22:55Z</time>
      </trkpt>
      <trkpt lat="45.833044918254018" lon="9.699065191671252">
        <ele>1000.04</ele>
        <time>2025-11-01T12:23:20Z</time>
      </trkpt>
      <trkpt lat="45.832914160564542" lon="9.699052618816495">
        <ele>1001.23</ele>
        <time>2025-11-01T12:23:34Z</time>
      </trkpt>
      <trkpt lat="45.8328041061759" lon="9.699013475328684">
        <ele>1001.9</ele>
        <time>2025-11-01T12:23:46Z</time>
      </trkpt>
      <trkpt lat="45.83271031267941" lon="9.698952874168754">
        <ele>1002.15</ele>
        <time>2025-11-01T12:23:57Z</time>
      </trkpt>
      <trkpt lat="45.832596905529499" lon="9.698904007673264">
        <ele>1004.3</ele>
        <time>2025-11-01T12:24:14Z</time>
      </trkpt>
      <trkpt lat="45.832547536119819" lon="9.698861679062247">
        <ele>1005.53</ele>
        <time>2025-11-01T12:24:43Z</time>
      </trkpt>
      <trkpt lat="45.832506883889437" lon="9.698775177821517">
        <ele>1004.48</ele>
        <time>2025-11-01T12:27:15Z</time>
      </trkpt>
      <trkpt lat="45.832482660189271" lon="9.698791690170765">
        <ele>1005.03</ele>
        <time>2025-11-01T12:28:17Z</time>
      </trkpt>
      <trkpt lat="45.832459190860391" lon="9.698836449533701">
        <ele>1005.36</ele>
        <time>2025-11-01T12:30:11Z</time>
      </trkpt>
      <trkpt lat="45.832434464246035" lon="9.698801748454571">
        <ele>1006.6900000000001</ele>
        <time>2025-11-01T12:35:45Z</time>
      </trkpt>
      <trkpt lat="45.832496993243694" lon="9.698802251368761">
        <ele>1007.3099999999999</ele>
        <time>2025-11-01T12:39:47Z</time>
      </trkpt>
      <trkpt lat="45.832474529743195" lon="9.698803760111332">
        <ele>1008.05</ele>
        <time>2025-11-01T12:43:59Z</time>
      </trkpt>
      <trkpt lat="45.832479139789939" lon="9.698850782588124">
        <ele>1008.03</ele>
        <time>2025-11-01T12:44:33Z</time>
      </trkpt>
      <trkpt lat="45.832475116476417" lon="9.698791271075606">
        <ele>1008.83</ele>
        <time>2025-11-01T12:45:21Z</time>
      </trkpt>
      <trkpt lat="45.832496238872409" lon="9.698797389864922">
        <ele>1008.25</ele>
        <time>2025-11-01T12:46:59Z</time>
      </trkpt>
      <trkpt lat="45.832480564713478" lon="9.698764868080616">
        <ele>1008.14</ele>
        <time>2025-11-01T13:00:10Z</time>
      </trkpt>
      <trkpt lat="45.832490958273411" lon="9.69882664270699">
        <ele>1008.5</ele>
        <time>2025-11-01T13:04:01Z</time>
      </trkpt>
      <trkpt lat="45.832430943846703" lon="9.698799652978778">
        <ele>1007.12</ele>
        <time>2025-11-01T13:04:49Z</time>
      </trkpt>
      <trkpt lat="45.83244938403368" lon="9.698681551963091">
        <ele>1006.9400000000001</ele>
        <time>2025-11-01T13:05:16Z</time>
      </trkpt>
      <trkpt lat="45.832393644377589" lon="9.698663279414177">
        <ele>1003.28</ele>
        <time>2025-11-01T13:05:42Z</time>
      </trkpt>
      <trkpt lat="45.832393309101462" lon="9.698522044345737">
        <ele>1000.3</ele>
        <time>2025-11-01T13:05:59Z</time>
      </trkpt>
      <trkpt lat="45.832403786480427" lon="9.698314256966114">
        <ele>998.5</ele>
        <time>2025-11-01T13:06:15Z</time>
      </trkpt>
      <trkpt lat="45.832319715991616" lon="9.698116444051266">
        <ele>998.97000000000003</ele>
        <time>2025-11-01T13:06:28Z</time>
      </trkpt>
      <trkpt lat="45.832262551411986" lon="9.697920391336083">
        <ele>997.14999999999998</ele>
        <time>2025-11-01T13:06:47Z</time>
      </trkpt>
      <trkpt lat="45.832228856161237" lon="9.697718219831586">
        <ele>995.66999999999996</ele>
        <time>2025-11-01T13:07:01Z</time>
      </trkpt>
      <trkpt lat="45.832197926938534" lon="9.697523005306721">
        <ele>995.59000000000003</ele>
        <time>2025-11-01T13:07:16Z</time>
      </trkpt>
      <trkpt lat="45.832146797329187" lon="9.69736123457551">
        <ele>996.38</ele>
        <time>2025-11-01T13:07:33Z</time>
      </trkpt>
      <trkpt lat="45.832139840349555" lon="9.697217317298055">
        <ele>997.33000000000004</ele>
        <time>2025-11-01T13:08:23Z</time>
      </trkpt>
      <trkpt lat="45.832165321335196" lon="9.697203822433949">
        <ele>997.03999999999996</ele>
        <time>2025-11-01T13:09:00Z</time>
      </trkpt>
      <trkpt lat="45.832266993820667" lon="9.697166103869677">
        <ele>994.21000000000004</ele>
        <time>2025-11-01T13:09:16Z</time>
      </trkpt>
      <trkpt lat="45.832378976047039" lon="9.69714917242527">
        <ele>991.40999999999997</ele>
        <time>2025-11-01T13:09:27Z</time>
      </trkpt>
      <trkpt lat="45.832505123689771" lon="9.697157889604569">
        <ele>988.24000000000001</ele>
        <time>2025-11-01T13:09:43Z</time>
      </trkpt>
      <trkpt lat="45.832605706527829" lon="9.697057725861669">
        <ele>985.78999999999996</ele>
        <time>2025-11-01T13:09:54Z</time>
      </trkpt>
      <trkpt lat="45.832670498639345" lon="9.696940463036299">
        <ele>984.16999999999996</ele>
        <time>2025-11-01T13:10:03Z</time>
      </trkpt>
      <trkpt lat="45.832730680704117" lon="9.696841891855001">
        <ele>983.28999999999996</ele>
        <time>2025-11-01T13:10:11Z</time>
      </trkpt>
      <trkpt lat="45.832818942144513" lon="9.696838622912765">
        <ele>980.83000000000004</ele>
        <time>2025-11-01T13:10:23Z</time>
      </trkpt>
      <trkpt lat="45.832897061482072" lon="9.696755139157176">
        <ele>978.25999999999999</ele>
        <time>2025-11-01T13:10:37Z</time>
      </trkpt>
      <trkpt lat="45.832981802523136" lon="9.696663105860353">
        <ele>976.27999999999997</ele>
        <time>2025-11-01T13:10:52Z</time>
      </trkpt>
      <trkpt lat="45.833073081448674" lon="9.696573670953512">
        <ele>975.80999999999995</ele>
        <time>2025-11-01T13:11:04Z</time>
      </trkpt>
      <trkpt lat="45.833101747557521" lon="9.696404943242669">
        <ele>974.25999999999999</ele>
        <time>2025-11-01T13:11:17Z</time>
      </trkpt>
      <trkpt lat="45.833103591576219" lon="9.696229677647352">
        <ele>972.55999999999995</ele>
        <time>2025-11-01T13:11:28Z</time>
      </trkpt>
      <trkpt lat="45.833051204681396" lon="9.696076205000281">
        <ele>971.37</ele>
        <time>2025-11-01T13:11:36Z</time>
      </trkpt>
      <trkpt lat="45.833059083670378" lon="9.695931533351541">
        <ele>970.39999999999998</ele>
        <time>2025-11-01T13:11:45Z</time>
      </trkpt>
      <trkpt lat="45.833088168874383" lon="9.695796500891447">
        <ele>967.79999999999995</ele>
        <time>2025-11-01T13:11:55Z</time>
      </trkpt>
      <trkpt lat="45.833093198016286" lon="9.695651074871421">
        <ele>966.09000000000003</ele>
        <time>2025-11-01T13:12:06Z</time>
      </trkpt>
      <trkpt lat="45.833100909367204" lon="9.695513108745217">
        <ele>963.23000000000002</ele>
        <time>2025-11-01T13:12:32Z</time>
      </trkpt>
      <trkpt lat="45.833158493041992" lon="9.695407412946224">
        <ele>960.47000000000003</ele>
        <time>2025-11-01T13:12:47Z</time>
      </trkpt>
      <trkpt lat="45.833149021491408" lon="9.695259723812342">
        <ele>956.54999999999995</ele>
        <time>2025-11-01T13:13:14Z</time>
      </trkpt>
      <trkpt lat="45.833137119188905" lon="9.695117482915521">
        <ele>953.5</ele>
        <time>2025-11-01T13:13:26Z</time>
      </trkpt>
      <trkpt lat="45.833142651244998" lon="9.694969626143575">
        <ele>950.65999999999997</ele>
        <time>2025-11-01T13:13:37Z</time>
      </trkpt>
      <trkpt lat="45.833139298483729" lon="9.694833587855101">
        <ele>948.34000000000003</ele>
        <time>2025-11-01T13:13:48Z</time>
      </trkpt>
      <trkpt lat="45.833109710365534" lon="9.694702494889498">
        <ele>945.46000000000004</ele>
        <time>2025-11-01T13:14:08Z</time>
      </trkpt>
      <trkpt lat="45.833159582689404" lon="9.694612137973309">
        <ele>943.41999999999996</ele>
        <time>2025-11-01T13:14:28Z</time>
      </trkpt>
      <trkpt lat="45.833238707855344" lon="9.694634266197681">
        <ele>940.75</ele>
        <time>2025-11-01T13:14:44Z</time>
      </trkpt>
      <trkpt lat="45.833331160247326" lon="9.694634769111872">
        <ele>938.58000000000004</ele>
        <time>2025-11-01T13:14:59Z</time>
      </trkpt>
      <trkpt lat="45.833398634567857" lon="9.694574335590005">
        <ele>935.20000000000005</ele>
        <time>2025-11-01T13:15:17Z</time>
      </trkpt>
      <trkpt lat="45.833513801917434" lon="9.694533850997686">
        <ele>931.86000000000001</ele>
        <time>2025-11-01T13:15:32Z</time>
      </trkpt>
      <trkpt lat="45.833615809679031" lon="9.694486744701862">
        <ele>929.64999999999998</ele>
        <time>2025-11-01T13:15:49Z</time>
      </trkpt>
      <trkpt lat="45.833701221272349" lon="9.694421365857124">
        <ele>927.72000000000003</ele>
        <time>2025-11-01T13:15:59Z</time>
      </trkpt>
      <trkpt lat="45.833809096366167" lon="9.694423964247108">
        <ele>925.15999999999997</ele>
        <time>2025-11-01T13:16:13Z</time>
      </trkpt>
      <trkpt lat="45.833917642012239" lon="9.694432681426406">
        <ele>923.63</ele>
        <time>2025-11-01T13:16:29Z</time>
      </trkpt>
      <trkpt lat="45.834043202921748" lon="9.694359675049782">
        <ele>921.25999999999999</ele>
        <time>2025-11-01T13:16:43Z</time>
      </trkpt>
      <trkpt lat="45.834126519039273" lon="9.694278286769986">
        <ele>918.88</ele>
        <time>2025-11-01T13:16:54Z</time>
      </trkpt>
      <trkpt lat="45.834216875955462" lon="9.694176446646452">
        <ele>918.72000000000003</ele>
        <time>2025-11-01T13:17:07Z</time>
      </trkpt>
      <trkpt lat="45.834281416609883" lon="9.694059267640114">
        <ele>917.88</ele>
        <time>2025-11-01T13:17:20Z</time>
      </trkpt>
      <trkpt lat="45.834368672221899" lon="9.694007048383355">
        <ele>916.67999999999995</ele>
        <time>2025-11-01T13:17:31Z</time>
      </trkpt>
      <trkpt lat="45.834463890641928" lon="9.69396036118269">
        <ele>914.63</ele>
        <time>2025-11-01T13:17:44Z</time>
      </trkpt>
      <trkpt lat="45.834594815969467" lon="9.69392666593194">
        <ele>912.46000000000004</ele>
        <time>2025-11-01T13:17:59Z</time>
      </trkpt>
      <trkpt lat="45.834703529253602" lon="9.693832453340292">
        <ele>910.97000000000003</ele>
        <time>2025-11-01T13:18:11Z</time>
      </trkpt>
      <trkpt lat="45.834781313315034" lon="9.69372239895165">
        <ele>909.70000000000005</ele>
        <time>2025-11-01T13:18:21Z</time>
      </trkpt>
      <trkpt lat="45.834859684109688" lon="9.693638412281871">
        <ele>907.42999999999995</ele>
        <time>2025-11-01T13:18:33Z</time>
      </trkpt>
      <trkpt lat="45.834953393787146" lon="9.693578565493226">
        <ele>905.47000000000003</ele>
        <time>2025-11-01T13:18:43Z</time>
      </trkpt>
      <trkpt lat="45.835060346871614" lon="9.693516958504915">
        <ele>905.16999999999996</ele>
        <time>2025-11-01T13:18:56Z</time>
      </trkpt>
      <trkpt lat="45.835196552798152" lon="9.693482592701912">
        <ele>906.28999999999996</ele>
        <time>2025-11-01T13:19:09Z</time>
      </trkpt>
      <trkpt lat="45.835318341851234" lon="9.693407909944654">
        <ele>907.07000000000005</ele>
        <time>2025-11-01T13:19:23Z</time>
      </trkpt>
      <trkpt lat="45.835406268015504" lon="9.693346219137311">
        <ele>907.25999999999999</ele>
        <time>2025-11-01T13:19:41Z</time>
      </trkpt>
      <trkpt lat="45.835492350161076" lon="9.693300956860185">
        <ele>906.94000000000005</ele>
        <time>2025-11-01T13:20:23Z</time>
      </trkpt>
      <trkpt lat="45.835486399009824" lon="9.693275727331638">
        <ele>906.09000000000003</ele>
        <time>2025-11-01T13:22:10Z</time>
      </trkpt>
      <trkpt lat="45.835540378466249" lon="9.693361725658178">
        <ele>905.74000000000001</ele>
        <time>2025-11-01T13:22:55Z</time>
      </trkpt>
      <trkpt lat="45.835580443963408" lon="9.69349030405283">
        <ele>902.72000000000003</ele>
        <time>2025-11-01T13:23:12Z</time>
      </trkpt>
      <trkpt lat="45.835580108687282" lon="9.693655427545309">
        <ele>900.35000000000002</ele>
        <time>2025-11-01T13:23:28Z</time>
      </trkpt>
      <trkpt lat="45.835584634914994" lon="9.693817030638456">
        <ele>898.19000000000005</ele>
        <time>2025-11-01T13:23:40Z</time>
      </trkpt>
      <trkpt lat="45.835564015433192" lon="9.693984584882855">
        <ele>898.08000000000004</ele>
        <time>2025-11-01T13:23:54Z</time>
      </trkpt>
      <trkpt lat="45.835581449791789" lon="9.694146607071161">
        <ele>899.66999999999996</ele>
        <time>2025-11-01T13:24:08Z</time>
      </trkpt>
      <trkpt lat="45.835612379014492" lon="9.694284657016397">
        <ele>899.28999999999996</ele>
        <time>2025-11-01T13:24:22Z</time>
      </trkpt>
      <trkpt lat="45.835586981847882" lon="9.694418767467141">
        <ele>897.20000000000005</ele>
        <time>2025-11-01T13:24:33Z</time>
      </trkpt>
      <trkpt lat="45.83559662103653" lon="9.694565366953611">
        <ele>897.84000000000003</ele>
        <time>2025-11-01T13:24:48Z</time>
      </trkpt>
      <trkpt lat="45.835557393729687" lon="9.694731077179313">
        <ele>896.89999999999998</ele>
        <time>2025-11-01T13:25:06Z</time>
      </trkpt>
      <trkpt lat="45.835576001554728" lon="9.694914221763611">
        <ele>896.02999999999997</ele>
        <time>2025-11-01T13:25:22Z</time>
      </trkpt>
      <trkpt lat="45.835604667663574" lon="9.695058641955257">
        <ele>893.85000000000002</ele>
        <time>2025-11-01T13:25:36Z</time>
      </trkpt>
      <trkpt lat="45.835641380399466" lon="9.695206079632044">
        <ele>893.24000000000001</ele>
        <time>2025-11-01T13:25:51Z</time>
      </trkpt>
      <trkpt lat="45.835664514452219" lon="9.695316217839718">
        <ele>892.52999999999997</ele>
        <time>2025-11-01T13:26:04Z</time>
      </trkpt>
      <trkpt lat="45.835716482251883" lon="9.695447226986289">
        <ele>892.27999999999997</ele>
        <time>2025-11-01T13:26:17Z</time>
      </trkpt>
      <trkpt lat="45.835779597982764" lon="9.695564322173595">
        <ele>892.63</ele>
        <time>2025-11-01T13:26:29Z</time>
      </trkpt>
      <trkpt lat="45.835830308496952" lon="9.695699941366911">
        <ele>893.19000000000005</ele>
        <time>2025-11-01T13:26:42Z</time>
      </trkpt>
      <trkpt lat="45.835852101445198" lon="9.695837236940861">
        <ele>892.26999999999998</ele>
        <time>2025-11-01T13:26:53Z</time>
      </trkpt>
      <trkpt lat="45.835848581045866" lon="9.695990961045027">
        <ele>891.28999999999996</ele>
        <time>2025-11-01T13:27:10Z</time>
      </trkpt>
      <trkpt lat="45.835809772834182" lon="9.696159856393933">
        <ele>892.13</ele>
        <time>2025-11-01T13:27:27Z</time>
      </trkpt>
      <trkpt lat="45.835873894393444" lon="9.696283657103777">
        <ele>891.65999999999997</ele>
        <time>2025-11-01T13:27:45Z</time>
      </trkpt>
      <trkpt lat="45.835910607129335" lon="9.696442494168878">
        <ele>891.38999999999999</ele>
        <time>2025-11-01T13:27:59Z</time>
      </trkpt>
      <trkpt lat="45.835945894941688" lon="9.696610467508435">
        <ele>891.34000000000003</ele>
        <time>2025-11-01T13:28:11Z</time>
      </trkpt>
      <trkpt lat="45.836003394797444" lon="9.696764526888728">
        <ele>891.69000000000005</ele>
        <time>2025-11-01T13:28:24Z</time>
      </trkpt>
      <trkpt lat="45.836050165817142" lon="9.696944989264011">
        <ele>891.02999999999997</ele>
        <time>2025-11-01T13:28:40Z</time>
      </trkpt>
      <trkpt lat="45.836066845804453" lon="9.697106508538127">
        <ele>891.20000000000005</ele>
        <time>2025-11-01T13:28:54Z</time>
      </trkpt>
      <trkpt lat="45.835993755608797" lon="9.69720583409071">
        <ele>888.42999999999995</ele>
        <time>2025-11-01T13:29:08Z</time>
      </trkpt>
      <trkpt lat="45.835924269631505" lon="9.697374645620585">
        <ele>884.70000000000005</ele>
        <time>2025-11-01T13:29:29Z</time>
      </trkpt>
      <trkpt lat="45.835859226062894" lon="9.697491489350796">
        <ele>883.09000000000003</ele>
        <time>2025-11-01T13:29:44Z</time>
      </trkpt>
      <trkpt lat="45.835938854143023" lon="9.697568770498037">
        <ele>880.55999999999995</ele>
        <time>2025-11-01T13:29:59Z</time>
      </trkpt>
      <trkpt lat="45.836028289049864" lon="9.697587378323078">
        <ele>880.39999999999998</ele>
        <time>2025-11-01T13:30:10Z</time>
      </trkpt>
      <trkpt lat="45.836103390902281" lon="9.697569524869323">
        <ele>882.86000000000001</ele>
        <time>2025-11-01T13:30:24Z</time>
      </trkpt>
      <trkpt lat="45.83620204590261" lon="9.697560137137771">
        <ele>883.16999999999996</ele>
        <time>2025-11-01T13:30:38Z</time>
      </trkpt>
      <trkpt lat="45.836314531043172" lon="9.697569189593196">
        <ele>882.34000000000003</ele>
        <time>2025-11-01T13:30:50Z</time>
      </trkpt>
      <trkpt lat="45.836425507441163" lon="9.697671867907047">
        <ele>882.59000000000003</ele>
        <time>2025-11-01T13:31:14Z</time>
      </trkpt>
      <trkpt lat="45.836513768881559" lon="9.697712771594524">
        <ele>882.42999999999995</ele>
        <time>2025-11-01T13:31:28Z</time>
      </trkpt>
      <trkpt lat="45.836615609005094" lon="9.697780162096024">
        <ele>880.89999999999998</ele>
        <time>2025-11-01T13:31:42Z</time>
      </trkpt>
      <trkpt lat="45.836704792454839" lon="9.697839170694351">
        <ele>880.00999999999999</ele>
        <time>2025-11-01T13:31:52Z</time>
      </trkpt>
      <trkpt lat="45.836735973134637" lon="9.697979064658284">
        <ele>879.86000000000001</ele>
        <time>2025-11-01T13:32:06Z</time>
      </trkpt>
      <trkpt lat="45.836799256503582" lon="9.69806388951838">
        <ele>878.92999999999995</ele>
        <time>2025-11-01T13:32:31Z</time>
      </trkpt>
      <trkpt lat="45.836893804371357" lon="9.698138488456607">
        <ele>875.88999999999999</ele>
        <time>2025-11-01T13:32:51Z</time>
      </trkpt>
      <trkpt lat="45.836974354460835" lon="9.698055423796177">
        <ele>876.65999999999997</ele>
        <time>2025-11-01T13:33:07Z</time>
      </trkpt>
      <trkpt lat="45.837058844044805" lon="9.698009323328733">
        <ele>876.21000000000004</ele>
        <time>2025-11-01T13:33:20Z</time>
      </trkpt>
      <trkpt lat="45.837108800187707" lon="9.697900945320725">
        <ele>876.07000000000005</ele>
        <time>2025-11-01T13:33:31Z</time>
      </trkpt>
      <trkpt lat="45.837159007787704" lon="9.697798434644938">
        <ele>874.85000000000002</ele>
        <time>2025-11-01T13:33:44Z</time>
      </trkpt>
      <trkpt lat="45.837190439924598" lon="9.697655187919736">
        <ele>873.58000000000004</ele>
        <time>2025-11-01T13:33:56Z</time>
      </trkpt>
      <trkpt lat="45.837281718850136" lon="9.697623504325748">
        <ele>871.91999999999996</ele>
        <time>2025-11-01T13:34:06Z</time>
      </trkpt>
      <trkpt lat="45.837357323616743" lon="9.697549911215901">
        <ele>869.70000000000005</ele>
        <time>2025-11-01T13:34:21Z</time>
      </trkpt>
      <trkpt lat="45.837440975010395" lon="9.697495512664318">
        <ele>867.45000000000005</ele>
        <time>2025-11-01T13:34:46Z</time>
      </trkpt>
      <trkpt lat="45.83754382096231" lon="9.697562148794532">
        <ele>864.47000000000003</ele>
        <time>2025-11-01T13:35:01Z</time>
      </trkpt>
      <trkpt lat="45.837647505104542" lon="9.697660300880671">
        <ele>863.15999999999997</ele>
        <time>2025-11-01T13:35:12Z</time>
      </trkpt>
      <trkpt lat="45.837783040478826" lon="9.697671113535762">
        <ele>862.09000000000003</ele>
        <time>2025-11-01T13:35:27Z</time>
      </trkpt>
      <trkpt lat="45.837786141782999" lon="9.697543289512396">
        <ele>864.45000000000005</ele>
        <time>2025-11-01T13:35:45Z</time>
      </trkpt>
      <trkpt lat="45.837745908647776" lon="9.697389481589198">
        <ele>866.07000000000005</ele>
        <time>2025-11-01T13:36:01Z</time>
      </trkpt>
      <trkpt lat="45.837784297764301" lon="9.697212371975184">
        <ele>866.47000000000003</ele>
        <time>2025-11-01T13:36:15Z</time>
      </trkpt>
      <trkpt lat="45.837835930287838" lon="9.69709494151175">
        <ele>865.73000000000002</ele>
        <time>2025-11-01T13:36:36Z</time>
      </trkpt>
      <trkpt lat="45.83792838267982" lon="9.697067281231284">
        <ele>866.38</ele>
        <time>2025-11-01T13:36:53Z</time>
      </trkpt>
      <trkpt lat="45.838043969124556" lon="9.697003243491054">
        <ele>869.41999999999996</ele>
        <time>2025-11-01T13:37:10Z</time>
      </trkpt>
      <trkpt lat="45.838086381554604" lon="9.696856560185552">
        <ele>870.72000000000003</ele>
        <time>2025-11-01T13:37:28Z</time>
      </trkpt>
      <trkpt lat="45.838126027956605" lon="9.696849267929792">
        <ele>871.5</ele>
        <time>2025-11-01T13:37:45Z</time>
      </trkpt>
      <trkpt lat="45.838223341852427" lon="9.6969248726964">
        <ele>871.63</ele>
        <time>2025-11-01T13:38:11Z</time>
      </trkpt>
      <trkpt lat="45.838288553059101" lon="9.697042806074023">
        <ele>871.38</ele>
        <time>2025-11-01T13:38:25Z</time>
      </trkpt>
      <trkpt lat="45.838366756215692" lon="9.697157302871347">
        <ele>872.32000000000005</ele>
        <time>2025-11-01T13:38:42Z</time>
      </trkpt>
      <trkpt lat="45.83843071013689" lon="9.697284791618586">
        <ele>869.65999999999997</ele>
        <time>2025-11-01T13:39:00Z</time>
      </trkpt>
      <trkpt lat="45.838575214147568" lon="9.697379088029265">
        <ele>870.82000000000005</ele>
        <time>2025-11-01T13:39:16Z</time>
      </trkpt>
      <trkpt lat="45.838707229122519" lon="9.697354193776846">
        <ele>870.88999999999999</ele>
        <time>2025-11-01T13:39:28Z</time>
      </trkpt>
      <trkpt lat="45.838818037882447" lon="9.697296442463994">
        <ele>871.94000000000005</ele>
        <time>2025-11-01T13:39:39Z</time>
      </trkpt>
      <trkpt lat="45.838894229382277" lon="9.697395600378513">
        <ele>871.58000000000004</ele>
        <time>2025-11-01T13:39:49Z</time>
      </trkpt>
      <trkpt lat="45.839018952101469" lon="9.697497691959143">
        <ele>871.71000000000004</ele>
        <time>2025-11-01T13:40:03Z</time>
      </trkpt>
      <trkpt lat="45.839136298745871" lon="9.697540272027254">
        <ele>869.91999999999996</ele>
        <time>2025-11-01T13:40:14Z</time>
      </trkpt>
      <trkpt lat="45.839264877140522" lon="9.697507163509727">
        <ele>869.44000000000005</ele>
        <time>2025-11-01T13:40:30Z</time>
      </trkpt>
      <trkpt lat="45.839364370331168" lon="9.697420243173838">
        <ele>871.59000000000003</ele>
        <time>2025-11-01T13:40:44Z</time>
      </trkpt>
      <trkpt lat="45.839469227939844" lon="9.69739886932075">
        <ele>872.94000000000005</ele>
        <time>2025-11-01T13:41:00Z</time>
      </trkpt>
      <trkpt lat="45.839530834928155" lon="9.697324857115746">
        <ele>873.04999999999995</ele>
        <time>2025-11-01T13:41:39Z</time>
      </trkpt>
      <trkpt lat="45.839633597061038" lon="9.697337597608566">
        <ele>876.19000000000005</ele>
        <time>2025-11-01T13:42:04Z</time>
      </trkpt>
      <trkpt lat="45.839697970077395" lon="9.697333993390203">
        <ele>877.58000000000004</ele>
        <time>2025-11-01T13:42:27Z</time>
      </trkpt>
      <trkpt lat="45.839732168242335" lon="9.697177754715085">
        <ele>880.20000000000005</ele>
        <time>2025-11-01T13:42:48Z</time>
      </trkpt>
      <trkpt lat="45.839833505451679" lon="9.697098378092051">
        <ele>882.38999999999999</ele>
        <time>2025-11-01T13:43:07Z</time>
      </trkpt>
      <trkpt lat="45.839914977550507" lon="9.696984719485045">
        <ele>879.54999999999995</ele>
        <time>2025-11-01T13:43:19Z</time>
      </trkpt>
      <trkpt lat="45.840011956170201" lon="9.696929901838303">
        <ele>878.58000000000004</ele>
        <time>2025-11-01T13:43:28Z</time>
      </trkpt>
      <trkpt lat="45.840117651969194" lon="9.696907605975866">
        <ele>878.45000000000005</ele>
        <time>2025-11-01T13:43:39Z</time>
      </trkpt>
      <trkpt lat="45.840211026370525" lon="9.696787660941482">
        <ele>879.75999999999999</ele>
        <time>2025-11-01T13:43:52Z</time>
      </trkpt>
      <trkpt lat="45.840291576460004" lon="9.696724629029632">
        <ele>881.36000000000001</ele>
        <time>2025-11-01T13:44:08Z</time>
      </trkpt>
      <trkpt lat="45.840384867042303" lon="9.696786906570196">
        <ele>879.07000000000005</ele>
        <time>2025-11-01T13:44:22Z</time>
      </trkpt>
      <trkpt lat="45.840488551184535" lon="9.696688335388899">
        <ele>876.89999999999998</ele>
        <time>2025-11-01T13:44:33Z</time>
      </trkpt>
      <trkpt lat="45.840592486783862" lon="9.696631589904428">
        <ele>875.80999999999995</ele>
        <time>2025-11-01T13:44:43Z</time>
      </trkpt>
      <trkpt lat="45.840588631108403" lon="9.696472249925137">
        <ele>874.88</ele>
        <time>2025-11-01T13:44:54Z</time>
      </trkpt>
      <trkpt lat="45.840548733249307" lon="9.696312826126814">
        <ele>874.72000000000003</ele>
        <time>2025-11-01T13:45:05Z</time>
      </trkpt>
      <trkpt lat="45.840547056868672" lon="9.696147115901113">
        <ele>874.25</ele>
        <time>2025-11-01T13:45:16Z</time>
      </trkpt>
      <trkpt lat="45.840568598359823" lon="9.695981070399284">
        <ele>874.42999999999995</ele>
        <time>2025-11-01T13:45:28Z</time>
      </trkpt>
      <trkpt lat="45.840595839545131" lon="9.695866238325834">
        <ele>873.45000000000005</ele>
        <time>2025-11-01T13:45:41Z</time>
      </trkpt>
      <trkpt lat="45.840718215331435" lon="9.6958420984447">
        <ele>873.12</ele>
        <time>2025-11-01T13:45:54Z</time>
      </trkpt>
      <trkpt lat="45.840834220871329" lon="9.695726009085774">
        <ele>871.75</ele>
        <time>2025-11-01T13:46:07Z</time>
      </trkpt>
      <trkpt lat="45.840892642736435" lon="9.695545379072428">
        <ele>871.38999999999999</ele>
        <time>2025-11-01T13:46:19Z</time>
      </trkpt>
      <trkpt lat="45.841009067371488" lon="9.695471534505487">
        <ele>871.37</ele>
        <time>2025-11-01T13:46:28Z</time>
      </trkpt>
      <trkpt lat="45.841118283569813" lon="9.695499697700143">
        <ele>871.64999999999998</ele>
        <time>2025-11-01T13:46:38Z</time>
      </trkpt>
      <trkpt lat="45.841212328523397" lon="9.695441611111164">
        <ele>872.99000000000001</ele>
        <time>2025-11-01T13:46:49Z</time>
      </trkpt>
      <trkpt lat="45.841234372928739" lon="9.695254107937217">
        <ele>874.67999999999995</ele>
        <time>2025-11-01T13:47:02Z</time>
      </trkpt>
      <trkpt lat="45.841305954381824" lon="9.695190489292145">
        <ele>875.55999999999995</ele>
        <time>2025-11-01T13:47:14Z</time>
      </trkpt>
      <trkpt lat="45.841410392895341" lon="9.695236925035715">
        <ele>873.62</ele>
        <time>2025-11-01T13:47:28Z</time>
      </trkpt>
      <trkpt lat="45.841501755639911" lon="9.69507054425776">
        <ele>871.50999999999999</ele>
        <time>2025-11-01T13:47:41Z</time>
      </trkpt>
      <trkpt lat="45.841532433405519" lon="9.694856470450759">
        <ele>869.85000000000002</ele>
        <time>2025-11-01T13:47:54Z</time>
      </trkpt>
      <trkpt lat="45.84148901514709" lon="9.694688078016043">
        <ele>868.34000000000003</ele>
        <time>2025-11-01T13:48:05Z</time>
      </trkpt>
      <trkpt lat="45.84150368347764" lon="9.694531839340925">
        <ele>867.42999999999995</ele>
        <time>2025-11-01T13:48:16Z</time>
      </trkpt>
      <trkpt lat="45.841535115614533" lon="9.694407200440764">
        <ele>867.82000000000005</ele>
        <time>2025-11-01T13:48:26Z</time>
      </trkpt>
      <trkpt lat="45.841603009030223" lon="9.694358753040433">
        <ele>868.99000000000001</ele>
        <time>2025-11-01T13:48:39Z</time>
      </trkpt>
      <trkpt lat="45.84169277921319" lon="9.69431072473526">
        <ele>867.64999999999998</ele>
        <time>2025-11-01T13:48:49Z</time>
      </trkpt>
      <trkpt lat="45.841789422556758" lon="9.694279208779335">
        <ele>867.37</ele>
        <time>2025-11-01T13:48:58Z</time>
      </trkpt>
      <trkpt lat="45.841885982081294" lon="9.694278035312891">
        <ele>868.13</ele>
        <time>2025-11-01T13:49:08Z</time>
      </trkpt>
      <trkpt lat="45.841990252956748" lon="9.694269401952624">
        <ele>869.49000000000001</ele>
        <time>2025-11-01T13:49:23Z</time>
      </trkpt>
      <trkpt lat="45.842091087251902" lon="9.694243837147951">
        <ele>870.38999999999999</ele>
        <time>2025-11-01T13:49:35Z</time>
      </trkpt>
      <trkpt lat="45.842187143862247" lon="9.69418809749186">
        <ele>869.40999999999997</ele>
        <time>2025-11-01T13:49:45Z</time>
      </trkpt>
      <trkpt lat="45.842273477464914" lon="9.694143841043115">
        <ele>870</ele>
        <time>2025-11-01T13:50:02Z</time>
      </trkpt>
      <trkpt lat="45.842364588752389" lon="9.694065637886524">
        <ele>869.65999999999997</ele>
        <time>2025-11-01T13:50:13Z</time>
      </trkpt>
      <trkpt lat="45.84246332757175" lon="9.694030517712236">
        <ele>868.61000000000001</ele>
        <time>2025-11-01T13:50:23Z</time>
      </trkpt>
      <trkpt lat="45.842553600668907" lon="9.693973688408732">
        <ele>868.23000000000002</ele>
        <time>2025-11-01T13:50:35Z</time>
      </trkpt>
      <trkpt lat="45.842654602602124" lon="9.693913841620088">
        <ele>869.55999999999995</ele>
        <time>2025-11-01T13:50:48Z</time>
      </trkpt>
      <trkpt lat="45.842747809365392" lon="9.693848798051477">
        <ele>870.38999999999999</ele>
        <time>2025-11-01T13:50:59Z</time>
      </trkpt>
      <trkpt lat="45.84284202195704" lon="9.693783083930612">
        <ele>870.67999999999995</ele>
        <time>2025-11-01T13:51:09Z</time>
      </trkpt>
      <trkpt lat="45.842946711927652" lon="9.693761542439461">
        <ele>870.85000000000002</ele>
        <time>2025-11-01T13:51:21Z</time>
      </trkpt>
      <trkpt lat="45.843057185411453" lon="9.69375466927886">
        <ele>871.67999999999995</ele>
        <time>2025-11-01T13:51:33Z</time>
      </trkpt>
      <trkpt lat="45.843159947544336" lon="9.693679232150316">
        <ele>870.04999999999995</ele>
        <time>2025-11-01T13:51:50Z</time>
      </trkpt>
      <trkpt lat="45.843259943649173" lon="9.693613685667515">
        <ele>869.85000000000002</ele>
        <time>2025-11-01T13:52:17Z</time>
      </trkpt>
      <trkpt lat="45.843369076028466" lon="9.693583343178034">
        <ele>870.95000000000005</ele>
        <time>2025-11-01T13:52:28Z</time>
      </trkpt>
      <trkpt lat="45.843491200357676" lon="9.693593736737967">
        <ele>872.22000000000003</ele>
        <time>2025-11-01T13:52:39Z</time>
      </trkpt>
      <trkpt lat="45.843612067401409" lon="9.693633131682873">
        <ele>873.32000000000005</ele>
        <time>2025-11-01T13:52:49Z</time>
      </trkpt>
      <trkpt lat="45.843726564198732" lon="9.693578900769353">
        <ele>873.97000000000003</ele>
        <time>2025-11-01T13:52:59Z</time>
      </trkpt>
      <trkpt lat="45.843850197270513" lon="9.693476725369692">
        <ele>874.46000000000004</ele>
        <time>2025-11-01T13:53:12Z</time>
      </trkpt>
      <trkpt lat="45.843964358791709" lon="9.693411346524954">
        <ele>874.99000000000001</ele>
        <time>2025-11-01T13:53:23Z</time>
      </trkpt>
      <trkpt lat="45.844048094004393" lon="9.693322665989399">
        <ele>875.04999999999995</ele>
        <time>2025-11-01T13:53:33Z</time>
      </trkpt>
      <trkpt lat="45.844092853367329" lon="9.693185957148671">
        <ele>875.48000000000002</ele>
        <time>2025-11-01T13:53:42Z</time>
      </trkpt>
      <trkpt lat="45.844160076230764" lon="9.69310624524951">
        <ele>875.88999999999999</ele>
        <time>2025-11-01T13:53:51Z</time>
      </trkpt>
      <trkpt lat="45.844249175861478" lon="9.69308327883482">
        <ele>876.49000000000001</ele>
        <time>2025-11-01T13:54:01Z</time>
      </trkpt>
      <trkpt lat="45.844337185844779" lon="9.693068275228143">
        <ele>876.78999999999996</ele>
        <time>2025-11-01T13:54:10Z</time>
      </trkpt>
      <trkpt lat="45.844428883865476" lon="9.692987473681569">
        <ele>876.36000000000001</ele>
        <time>2025-11-01T13:54:19Z</time>
      </trkpt>
      <trkpt lat="45.844502057880163" lon="9.692870797589421">
        <ele>876.36000000000001</ele>
        <time>2025-11-01T13:54:28Z</time>
      </trkpt>
      <trkpt lat="45.844589397311211" lon="9.692777842283249">
        <ele>875.99000000000001</ele>
        <time>2025-11-01T13:54:37Z</time>
      </trkpt>
      <trkpt lat="45.844673132523894" lon="9.692678935825825">
        <ele>875.55999999999995</ele>
        <time>2025-11-01T13:54:46Z</time>
      </trkpt>
      <trkpt lat="45.844755191355944" lon="9.692587740719318">
        <ele>874.88999999999999</ele>
        <time>2025-11-01T13:54:55Z</time>
      </trkpt>
      <trkpt lat="45.844836831092834" lon="9.692502245306969">
        <ele>874.61000000000001</ele>
        <time>2025-11-01T13:55:04Z</time>
      </trkpt>
      <trkpt lat="45.844915453344584" lon="9.692418510094285">
        <ele>873.89999999999998</ele>
        <time>2025-11-01T13:55:13Z</time>
      </trkpt>
      <trkpt lat="45.844982173293829" lon="9.692337289452553">
        <ele>873.30999999999995</ele>
        <time>2025-11-01T13:55:28Z</time>
      </trkpt>
      <trkpt lat="45.845070937648416" lon="9.692277191206813">
        <ele>870.54999999999995</ele>
        <time>2025-11-01T13:55:40Z</time>
      </trkpt>
      <trkpt lat="45.845160456374288" lon="9.692225391045213">
        <ele>868.26999999999998</ele>
        <time>2025-11-01T13:55:52Z</time>
      </trkpt>
      <trkpt lat="45.845206724479795" lon="9.692088849842548">
        <ele>866.09000000000003</ele>
        <time>2025-11-01T13:56:04Z</time>
      </trkpt>
      <trkpt lat="45.845268331468105" lon="9.691919451579452">
        <ele>863.98000000000002</ele>
        <time>2025-11-01T13:56:16Z</time>
      </trkpt>
      <trkpt lat="45.845356928184628" lon="9.691810989752412">
        <ele>863.53999999999996</ele>
        <time>2025-11-01T13:56:25Z</time>
      </trkpt>
      <trkpt lat="45.845406632870436" lon="9.69163597561419">
        <ele>862.72000000000003</ele>
        <time>2025-11-01T13:56:36Z</time>
      </trkpt>
      <trkpt lat="45.845367070287466" lon="9.691591719165444">
        <ele>861.64999999999998</ele>
        <time>2025-11-01T13:57:07Z</time>
      </trkpt>
      <trkpt lat="45.84528710693121" lon="9.691597670316696">
        <ele>856.13</ele>
        <time>2025-11-01T13:57:35Z</time>
      </trkpt>
      <trkpt lat="45.845176046714187" lon="9.691530112177134">
        <ele>852.38999999999999</ele>
        <time>2025-11-01T13:57:54Z</time>
      </trkpt>
      <trkpt lat="45.845078816637397" lon="9.69153773970902">
        <ele>848.37</ele>
        <time>2025-11-01T13:58:13Z</time>
      </trkpt>
      <trkpt lat="45.844964319840074" lon="9.691530112177134">
        <ele>846.05999999999995</ele>
        <time>2025-11-01T13:58:27Z</time>
      </trkpt>
      <trkpt lat="45.844900701195002" lon="9.691600436344743">
        <ele>842.83000000000004</ele>
        <time>2025-11-01T13:58:46Z</time>
      </trkpt>
      <trkpt lat="45.844741612672806" lon="9.691595826297998">
        <ele>838.25</ele>
        <time>2025-11-01T13:59:05Z</time>
      </trkpt>
      <trkpt lat="45.84461135789752" lon="9.691544864326716">
        <ele>836.33000000000004</ele>
        <time>2025-11-01T13:59:17Z</time>
      </trkpt>
      <trkpt lat="45.844492502510548" lon="9.691527429968119">
        <ele>835.74000000000001</ele>
        <time>2025-11-01T13:59:27Z</time>
      </trkpt>
      <trkpt lat="45.844378676265478" lon="9.691488621756434">
        <ele>835.91999999999996</ele>
        <time>2025-11-01T13:59:38Z</time>
      </trkpt>
      <trkpt lat="45.844281362369657" lon="9.691462470218539">
        <ele>837.11000000000001</ele>
        <time>2025-11-01T13:59:48Z</time>
      </trkpt>
      <trkpt lat="45.844193520024419" lon="9.691420812159777">
        <ele>837.14999999999998</ele>
        <time>2025-11-01T13:59:58Z</time>
      </trkpt>
      <trkpt lat="45.844100648537278" lon="9.691390804946423">
        <ele>835.11000000000001</ele>
        <time>2025-11-01T14:00:09Z</time>
      </trkpt>
      <trkpt lat="45.844041723757982" lon="9.691503709182143">
        <ele>833.58000000000004</ele>
        <time>2025-11-01T14:00:19Z</time>
      </trkpt>
      <trkpt lat="45.843989755958319" lon="9.6916130091995">
        <ele>832.09000000000003</ele>
        <time>2025-11-01T14:00:30Z</time>
      </trkpt>
      <trkpt lat="45.843921443447471" lon="9.691715519875288">
        <ele>829.74000000000001</ele>
        <time>2025-11-01T14:00:41Z</time>
      </trkpt>
      <trkpt lat="45.843854052945971" lon="9.691805457696319">
        <ele>828.52999999999997</ele>
        <time>2025-11-01T14:00:51Z</time>
      </trkpt>
      <trkpt lat="45.843784734606743" lon="9.691899754106998">
        <ele>827.19000000000005</ele>
        <time>2025-11-01T14:01:01Z</time>
      </trkpt>
      <trkpt lat="45.843706363812089" lon="9.691993379965425">
        <ele>825.66999999999996</ele>
        <time>2025-11-01T14:01:11Z</time>
      </trkpt>
      <trkpt lat="45.843619275838137" lon="9.692070577293634">
        <ele>823.95000000000005</ele>
        <time>2025-11-01T14:01:21Z</time>
      </trkpt>
      <trkpt lat="45.84352171048522" lon="9.69215146265924">
        <ele>822.13999999999999</ele>
        <time>2025-11-01T14:01:32Z</time>
      </trkpt>
      <trkpt lat="45.843417523428798" lon="9.692207872867584">
        <ele>820.82000000000005</ele>
        <time>2025-11-01T14:01:42Z</time>
      </trkpt>
      <trkpt lat="45.843400843441486" lon="9.692095052450895">
        <ele>819.19000000000005</ele>
        <time>2025-11-01T14:01:51Z</time>
      </trkpt>
      <trkpt lat="45.84344401024282" lon="9.691953063011169">
        <ele>817.33000000000004</ele>
        <time>2025-11-01T14:02:02Z</time>
      </trkpt>
      <trkpt lat="45.843457421287894" lon="9.691808307543397">
        <ele>815.50999999999999</ele>
        <time>2025-11-01T14:02:24Z</time>
      </trkpt>
      <trkpt lat="45.843433113768697" lon="9.691687105223537">
        <ele>814.34000000000003</ele>
        <time>2025-11-01T14:02:53Z</time>
      </trkpt>
      <trkpt lat="45.843434035778046" lon="9.691557688638568">
        <ele>812.92999999999995</ele>
        <time>2025-11-01T14:03:09Z</time>
      </trkpt>
      <trkpt lat="45.84343571215868" lon="9.691420895978808">
        <ele>811.36000000000001</ele>
        <time>2025-11-01T14:03:21Z</time>
      </trkpt>
      <trkpt lat="45.843441998586059" lon="9.691287623718381">
        <ele>810.08000000000004</ele>
        <time>2025-11-01T14:03:32Z</time>
      </trkpt>
      <trkpt lat="45.843390952795744" lon="9.691240433603525">
        <ele>808.73000000000002</ele>
        <time>2025-11-01T14:03:43Z</time>
      </trkpt>
      <trkpt lat="45.843311492353678" lon="9.691316289827228">
        <ele>807.53999999999996</ele>
        <time>2025-11-01T14:03:53Z</time>
      </trkpt>
      <trkpt lat="45.843225158751011" lon="9.691383764147759">
        <ele>806.25999999999999</ele>
        <time>2025-11-01T14:04:04Z</time>
      </trkpt>
      <trkpt lat="45.843134969472885" lon="9.69144637696445">
        <ele>804.92999999999995</ele>
        <time>2025-11-01T14:04:13Z</time>
      </trkpt>
      <trkpt lat="45.843033716082573" lon="9.691472193226218">
        <ele>805.66999999999996</ele>
        <time>2025-11-01T14:04:22Z</time>
      </trkpt>
      <trkpt lat="45.84295098669827" lon="9.691471522673965">
        <ele>806.33000000000004</ele>
        <time>2025-11-01T14:04:37Z</time>
      </trkpt>
      <trkpt lat="45.842875717207789" lon="9.691465068608522">
        <ele>803.37</ele>
        <time>2025-11-01T14:04:53Z</time>
      </trkpt>
      <trkpt lat="45.842931121587753" lon="9.691349314525724">
        <ele>801.33000000000004</ele>
        <time>2025-11-01T14:05:06Z</time>
      </trkpt>
      <trkpt lat="45.842968001961708" lon="9.69121671281755">
        <ele>799.13</ele>
        <time>2025-11-01T14:05:19Z</time>
      </trkpt>
      <trkpt lat="45.843009492382407" lon="9.691111017018557">
        <ele>797.64999999999998</ele>
        <time>2025-11-01T14:05:30Z</time>
      </trkpt>
      <trkpt lat="45.842939503490925" lon="9.691043794155121">
        <ele>796.21000000000004</ele>
        <time>2025-11-01T14:05:41Z</time>
      </trkpt>
      <trkpt lat="45.842886446043849" lon="9.691028371453285">
        <ele>794.25999999999999</ele>
        <time>2025-11-01T14:05:53Z</time>
      </trkpt>
      <trkpt lat="45.842940844595432" lon="9.690921166911721">
        <ele>792.59000000000003</ele>
        <time>2025-11-01T14:06:03Z</time>
      </trkpt>
      <trkpt lat="45.842996081337333" lon="9.690802395343781">
        <ele>790.98000000000002</ele>
        <time>2025-11-01T14:06:14Z</time>
      </trkpt>
      <trkpt lat="45.843041930347681" lon="9.690684461966157">
        <ele>789.13999999999999</ele>
        <time>2025-11-01T14:06:24Z</time>
      </trkpt>
      <trkpt lat="45.843081409111619" lon="9.69055806286633">
        <ele>787.54999999999995</ele>
        <time>2025-11-01T14:06:34Z</time>
      </trkpt>
      <trkpt lat="45.843006642535329" lon="9.690594775602222">
        <ele>785.63999999999999</ele>
        <time>2025-11-01T14:06:45Z</time>
      </trkpt>
      <trkpt lat="45.842916956171393" lon="9.690567534416914">
        <ele>783.72000000000003</ele>
        <time>2025-11-01T14:06:56Z</time>
      </trkpt>
      <trkpt lat="45.842828443273902" lon="9.690543645992875">
        <ele>781.94000000000005</ele>
        <time>2025-11-01T14:07:07Z</time>
      </trkpt>
      <trkpt lat="45.842742528766394" lon="9.690496288239956">
        <ele>779.88999999999999</ele>
        <time>2025-11-01T14:07:18Z</time>
      </trkpt>
      <trkpt lat="45.84265636280179" lon="9.69043442979455">
        <ele>777.75</ele>
        <time>2025-11-01T14:07:31Z</time>
      </trkpt>
      <trkpt lat="45.842560641467571" lon="9.690404506400228">
        <ele>775.73000000000002</ele>
        <time>2025-11-01T14:07:43Z</time>
      </trkpt>
      <trkpt lat="45.842471793293953" lon="9.690374247729778">
        <ele>774.09000000000003</ele>
        <time>2025-11-01T14:07:53Z</time>
      </trkpt>
      <trkpt lat="45.842388980090618" lon="9.690331500023603">
        <ele>772.44000000000005</ele>
        <time>2025-11-01T14:08:03Z</time>
      </trkpt>
      <trkpt lat="45.842298706993461" lon="9.690288584679365">
        <ele>770.15999999999997</ele>
        <time>2025-11-01T14:08:16Z</time>
      </trkpt>
      <trkpt lat="45.842335084453225" lon="9.69021063297987">
        <ele>768.26999999999998</ele>
        <time>2025-11-01T14:08:27Z</time>
      </trkpt>
      <trkpt lat="45.842238692566752" lon="9.690192276611924">
        <ele>766.63999999999999</ele>
        <time>2025-11-01T14:08:37Z</time>
      </trkpt>
      <trkpt lat="45.842149341478944" lon="9.690190264955163">
        <ele>764.88999999999999</ele>
        <time>2025-11-01T14:08:46Z</time>
      </trkpt>
      <trkpt lat="45.842057224363089" lon="9.690131507813931">
        <ele>763.76999999999998</ele>
        <time>2025-11-01T14:08:55Z</time>
      </trkpt>
      <trkpt lat="45.842075580731034" lon="9.690016424283385">
        <ele>762.27999999999997</ele>
        <time>2025-11-01T14:09:04Z</time>
      </trkpt>
      <trkpt lat="45.842124698683619" lon="9.689903352409601">
        <ele>760.23000000000002</ele>
        <time>2025-11-01T14:09:15Z</time>
      </trkpt>
      <trkpt lat="45.842043310403824" lon="9.6898602694273">
        <ele>759.21000000000004</ele>
        <time>2025-11-01T14:09:25Z</time>
      </trkpt>
      <trkpt lat="45.842009615153074" lon="9.689912488684058">
        <ele>758.65999999999997</ele>
        <time>2025-11-01T14:10:08Z</time>
      </trkpt>
      <trkpt lat="45.84192831069231" lon="9.689827999100089">
        <ele>758.11000000000001</ele>
        <time>2025-11-01T14:10:21Z</time>
      </trkpt>
      <trkpt lat="45.841911295428872" lon="9.689708054065704">
        <ele>756.64999999999998</ele>
        <time>2025-11-01T14:10:30Z</time>
      </trkpt>
      <trkpt lat="45.841954881325364" lon="9.689597161486745">
        <ele>755.67999999999995</ele>
        <time>2025-11-01T14:10:39Z</time>
      </trkpt>
      <trkpt lat="45.841985810548067" lon="9.689538907259703">
        <ele>754.75999999999999</ele>
        <time>2025-11-01T14:11:26Z</time>
      </trkpt>
    </trkseg>
  </trk>

</gpx>